<?xml version="1.0" encoding="UTF-8" standalone="no" ?>
<gpx xmlns="http://www.topografix.com/GPX/1/1" xmlns:xsi="http://www.w3.org/2001/XMLSchema-instance" xsi:schemaLocation="http://www.topografix.com/GPX/1/1 http://www.topografix.com/GPX/1/1/gpx.xsd" version="1.1" creator="VisuGPX - https://www.visugpx.com">
  <metadata>
    <name>la Sylve Bénite</name>
    <desc><![CDATA[Belle promenade autour de l\'ancienne chartreuse de Chassigneux hameau du Pin]]></desc>
  </metadata>
  <wpt lat="45.44606" lon="5.48196">
    <ele>600.705078125</ele>
    <name><![CDATA[ancienne chart]]></name>
    <desc><![CDATA[Route et Chemin]]></desc>
    <cmt><![CDATA[Route et Chemin]]></cmt>
  </wpt>
  <wpt lat="45.4452" lon="5.46664">
    <ele>685.5</ele>
    <name><![CDATA[Croix Du Moine]]></name>
    <desc><![CDATA[Croix Du Moine Mort]]></desc>
    <cmt><![CDATA[Croix Du Moine Mort]]></cmt>
  </wpt>
  <wpt lat="45.44407" lon="5.48821">
    <ele>562.01220703125</ele>
    <name><![CDATA[La Courrerie]]></name>
    <desc><![CDATA[La Courrerie]]></desc>
    <cmt><![CDATA[La Courrerie]]></cmt>
  </wpt>
  <wpt lat="45.44858" lon="5.47194">
    <ele>743.94018554688</ele>
    <name><![CDATA[Point 759]]></name>
    <desc><![CDATA[Forêt]]></desc>
    <cmt><![CDATA[Forêt]]></cmt>
  </wpt>
  <wpt lat="45.44935" lon="5.47113">
    <ele>728.31909179688</ele>
    <name><![CDATA[Source]]></name>
    <desc><![CDATA[Source]]></desc>
    <cmt><![CDATA[Source]]></cmt>
  </wpt>
  <trk>
    <name><![CDATA[ACTIVE LOG 002]]></name>
    <trkseg>
      <trkpt lat="45.4441" lon="5.4892">
        <ele>555.779296875</ele>
        <time>2011-04-09T13:15:24Z</time>
      </trkpt>
      <trkpt lat="45.44405" lon="5.48913">
        <ele>555.779296875</ele>
        <time>2011-04-09T13:19:08Z</time>
      </trkpt>
      <trkpt lat="45.44404" lon="5.48906">
        <ele>555.779296875</ele>
        <time>2011-04-09T13:19:20Z</time>
      </trkpt>
      <trkpt lat="45.44404" lon="5.48904">
        <ele>555.779296875</ele>
        <time>2011-04-09T13:19:21Z</time>
      </trkpt>
      <trkpt lat="45.44402" lon="5.48875">
        <ele>555.779296875</ele>
        <time>2011-04-09T13:19:42Z</time>
      </trkpt>
      <trkpt lat="45.44401" lon="5.48845">
        <ele>554.33740234375</ele>
        <time>2011-04-09T13:20:02Z</time>
      </trkpt>
      <trkpt lat="45.44402" lon="5.48836">
        <ele>553.85668945312</ele>
        <time>2011-04-09T13:20:17Z</time>
      </trkpt>
      <trkpt lat="45.444" lon="5.48827">
        <ele>553.3759765625</ele>
        <time>2011-04-09T13:20:31Z</time>
      </trkpt>
      <trkpt lat="45.44397" lon="5.48823">
        <ele>553.85668945312</ele>
        <time>2011-04-09T13:20:35Z</time>
      </trkpt>
      <trkpt lat="45.4439" lon="5.48811">
        <ele>554.81787109375</ele>
        <time>2011-04-09T13:20:48Z</time>
      </trkpt>
      <trkpt lat="45.44379" lon="5.48789">
        <ele>555.29858398438</ele>
        <time>2011-04-09T13:21:07Z</time>
      </trkpt>
      <trkpt lat="45.44364" lon="5.48771">
        <ele>555.779296875</ele>
        <time>2011-04-09T13:21:25Z</time>
      </trkpt>
      <trkpt lat="45.44347" lon="5.48754">
        <ele>555.29858398438</ele>
        <time>2011-04-09T13:21:44Z</time>
      </trkpt>
      <trkpt lat="45.44336" lon="5.48748">
        <ele>555.779296875</ele>
        <time>2011-04-09T13:21:58Z</time>
      </trkpt>
      <trkpt lat="45.44324" lon="5.48741">
        <ele>555.779296875</ele>
        <time>2011-04-09T13:22:14Z</time>
      </trkpt>
      <trkpt lat="45.44318" lon="5.4873">
        <ele>556.26000976562</ele>
        <time>2011-04-09T13:22:28Z</time>
      </trkpt>
      <trkpt lat="45.44304" lon="5.48719">
        <ele>556.74072265625</ele>
        <time>2011-04-09T13:22:44Z</time>
      </trkpt>
      <trkpt lat="45.4429" lon="5.48706">
        <ele>557.22143554688</ele>
        <time>2011-04-09T13:22:58Z</time>
      </trkpt>
      <trkpt lat="45.44275" lon="5.48692">
        <ele>558.18286132812</ele>
        <time>2011-04-09T13:23:15Z</time>
      </trkpt>
      <trkpt lat="45.44273" lon="5.48689">
        <ele>558.18286132812</ele>
        <time>2011-04-09T13:23:18Z</time>
      </trkpt>
      <trkpt lat="45.44262" lon="5.48671">
        <ele>559.62475585938</ele>
        <time>2011-04-09T13:23:34Z</time>
      </trkpt>
      <trkpt lat="45.44256" lon="5.48659">
        <ele>561.06665039062</ele>
        <time>2011-04-09T13:23:45Z</time>
      </trkpt>
      <trkpt lat="45.44247" lon="5.48645">
        <ele>562.02807617188</ele>
        <time>2011-04-09T13:23:57Z</time>
      </trkpt>
      <trkpt lat="45.44245" lon="5.48634">
        <ele>563.46997070312</ele>
        <time>2011-04-09T13:24:07Z</time>
      </trkpt>
      <trkpt lat="45.44234" lon="5.48625">
        <ele>564.91186523438</ele>
        <time>2011-04-09T13:24:19Z</time>
      </trkpt>
      <trkpt lat="45.44228" lon="5.48619">
        <ele>565.87329101562</ele>
        <time>2011-04-09T13:24:28Z</time>
      </trkpt>
      <trkpt lat="45.44218" lon="5.48608">
        <ele>566.83447265625</ele>
        <time>2011-04-09T13:24:39Z</time>
      </trkpt>
      <trkpt lat="45.44212" lon="5.486">
        <ele>568.2763671875</ele>
        <time>2011-04-09T13:24:51Z</time>
      </trkpt>
      <trkpt lat="45.44198" lon="5.48595">
        <ele>569.71850585938</ele>
        <time>2011-04-09T13:25:06Z</time>
      </trkpt>
      <trkpt lat="45.44189" lon="5.48588">
        <ele>571.16040039062</ele>
        <time>2011-04-09T13:25:18Z</time>
      </trkpt>
      <trkpt lat="45.44175" lon="5.48575">
        <ele>572.6025390625</ele>
        <time>2011-04-09T13:25:34Z</time>
      </trkpt>
      <trkpt lat="45.44164" lon="5.48563">
        <ele>574.04443359375</ele>
        <time>2011-04-09T13:25:49Z</time>
      </trkpt>
      <trkpt lat="45.44156" lon="5.48554">
        <ele>575.005859375</ele>
        <time>2011-04-09T13:26:00Z</time>
      </trkpt>
      <trkpt lat="45.44146" lon="5.48543">
        <ele>575.96704101562</ele>
        <time>2011-04-09T13:26:13Z</time>
      </trkpt>
      <trkpt lat="45.44134" lon="5.48528">
        <ele>576.44775390625</ele>
        <time>2011-04-09T13:26:26Z</time>
      </trkpt>
      <trkpt lat="45.44128" lon="5.48523">
        <ele>576.44775390625</ele>
        <time>2011-04-09T13:26:32Z</time>
      </trkpt>
      <trkpt lat="45.4411" lon="5.48503">
        <ele>576.92846679688</ele>
        <time>2011-04-09T13:26:51Z</time>
      </trkpt>
      <trkpt lat="45.44101" lon="5.48489">
        <ele>576.92846679688</ele>
        <time>2011-04-09T13:27:02Z</time>
      </trkpt>
      <trkpt lat="45.44085" lon="5.48467">
        <ele>576.44775390625</ele>
        <time>2011-04-09T13:27:21Z</time>
      </trkpt>
      <trkpt lat="45.44066" lon="5.48441">
        <ele>575.96704101562</ele>
        <time>2011-04-09T13:27:42Z</time>
      </trkpt>
      <trkpt lat="45.44058" lon="5.48422">
        <ele>576.44775390625</ele>
        <time>2011-04-09T13:27:57Z</time>
      </trkpt>
      <trkpt lat="45.44049" lon="5.48407">
        <ele>576.44775390625</ele>
        <time>2011-04-09T13:28:08Z</time>
      </trkpt>
      <trkpt lat="45.44049" lon="5.48401">
        <ele>576.44775390625</ele>
        <time>2011-04-09T13:28:12Z</time>
      </trkpt>
      <trkpt lat="45.44051" lon="5.48372">
        <ele>576.92846679688</ele>
        <time>2011-04-09T13:28:29Z</time>
      </trkpt>
      <trkpt lat="45.44054" lon="5.48356">
        <ele>577.4091796875</ele>
        <time>2011-04-09T13:28:39Z</time>
      </trkpt>
      <trkpt lat="45.44054" lon="5.48353">
        <ele>577.4091796875</ele>
        <time>2011-04-09T13:28:41Z</time>
      </trkpt>
      <trkpt lat="45.44055" lon="5.48348">
        <ele>577.4091796875</ele>
        <time>2011-04-09T13:28:44Z</time>
      </trkpt>
      <trkpt lat="45.44058" lon="5.48337">
        <ele>577.4091796875</ele>
        <time>2011-04-09T13:28:51Z</time>
      </trkpt>
      <trkpt lat="45.44058" lon="5.48332">
        <ele>577.4091796875</ele>
        <time>2011-04-09T13:28:54Z</time>
      </trkpt>
      <trkpt lat="45.44056" lon="5.48327">
        <ele>577.4091796875</ele>
        <time>2011-04-09T13:28:57Z</time>
      </trkpt>
      <trkpt lat="45.44056" lon="5.48312">
        <ele>577.8896484375</ele>
        <time>2011-04-09T13:29:06Z</time>
      </trkpt>
      <trkpt lat="45.44054" lon="5.48303">
        <ele>577.8896484375</ele>
        <time>2011-04-09T13:29:11Z</time>
      </trkpt>
      <trkpt lat="45.4405" lon="5.48295">
        <ele>577.8896484375</ele>
        <time>2011-04-09T13:29:17Z</time>
      </trkpt>
      <trkpt lat="45.44047" lon="5.48275">
        <ele>577.8896484375</ele>
        <time>2011-04-09T13:29:29Z</time>
      </trkpt>
      <trkpt lat="45.44044" lon="5.4825">
        <ele>578.37036132812</ele>
        <time>2011-04-09T13:29:44Z</time>
      </trkpt>
      <trkpt lat="45.44046" lon="5.48232">
        <ele>578.37036132812</ele>
        <time>2011-04-09T13:29:56Z</time>
      </trkpt>
      <trkpt lat="45.44045" lon="5.48228">
        <ele>578.37036132812</ele>
        <time>2011-04-09T13:29:58Z</time>
      </trkpt>
      <trkpt lat="45.44046" lon="5.48215">
        <ele>578.85107421875</ele>
        <time>2011-04-09T13:30:06Z</time>
      </trkpt>
      <trkpt lat="45.44044" lon="5.48212">
        <ele>578.85107421875</ele>
        <time>2011-04-09T13:30:08Z</time>
      </trkpt>
      <trkpt lat="45.44041" lon="5.48188">
        <ele>578.85107421875</ele>
        <time>2011-04-09T13:30:21Z</time>
      </trkpt>
      <trkpt lat="45.4404" lon="5.48186">
        <ele>578.85107421875</ele>
        <time>2011-04-09T13:30:22Z</time>
      </trkpt>
      <trkpt lat="45.4404" lon="5.48183">
        <ele>578.85107421875</ele>
        <time>2011-04-09T13:30:24Z</time>
      </trkpt>
      <trkpt lat="45.44039" lon="5.48171">
        <ele>578.85107421875</ele>
        <time>2011-04-09T13:30:32Z</time>
      </trkpt>
      <trkpt lat="45.4404" lon="5.48143">
        <ele>579.33154296875</ele>
        <time>2011-04-09T13:30:50Z</time>
      </trkpt>
      <trkpt lat="45.4404" lon="5.48122">
        <ele>579.81225585938</ele>
        <time>2011-04-09T13:31:04Z</time>
      </trkpt>
      <trkpt lat="45.44037" lon="5.48116">
        <ele>579.81225585938</ele>
        <time>2011-04-09T13:31:08Z</time>
      </trkpt>
      <trkpt lat="45.44028" lon="5.4809">
        <ele>580.29296875</ele>
        <time>2011-04-09T13:31:24Z</time>
      </trkpt>
      <trkpt lat="45.44032" lon="5.48088">
        <ele>579.81225585938</ele>
        <time>2011-04-09T13:31:28Z</time>
      </trkpt>
      <trkpt lat="45.44046" lon="5.48089">
        <ele>579.81225585938</ele>
        <time>2011-04-09T13:31:38Z</time>
      </trkpt>
      <trkpt lat="45.44061" lon="5.48085">
        <ele>580.77368164062</ele>
        <time>2011-04-09T13:31:48Z</time>
      </trkpt>
      <trkpt lat="45.44077" lon="5.48085">
        <ele>580.77368164062</ele>
        <time>2011-04-09T13:32:06Z</time>
      </trkpt>
      <trkpt lat="45.44094" lon="5.48081">
        <ele>581.25439453125</ele>
        <time>2011-04-09T13:32:23Z</time>
      </trkpt>
      <trkpt lat="45.44118" lon="5.48078">
        <ele>581.73486328125</ele>
        <time>2011-04-09T13:32:40Z</time>
      </trkpt>
      <trkpt lat="45.44137" lon="5.48079">
        <ele>581.73486328125</ele>
        <time>2011-04-09T13:32:54Z</time>
      </trkpt>
      <trkpt lat="45.44151" lon="5.48077">
        <ele>582.21557617188</ele>
        <time>2011-04-09T13:33:06Z</time>
      </trkpt>
      <trkpt lat="45.44163" lon="5.48078">
        <ele>582.6962890625</ele>
        <time>2011-04-09T13:33:18Z</time>
      </trkpt>
      <trkpt lat="45.44175" lon="5.48077">
        <ele>583.1767578125</ele>
        <time>2011-04-09T13:33:28Z</time>
      </trkpt>
      <trkpt lat="45.44194" lon="5.48076">
        <ele>583.1767578125</ele>
        <time>2011-04-09T13:33:42Z</time>
      </trkpt>
      <trkpt lat="45.44197" lon="5.48075">
        <ele>583.65747070312</ele>
        <time>2011-04-09T13:33:45Z</time>
      </trkpt>
      <trkpt lat="45.44207" lon="5.48075">
        <ele>584.13818359375</ele>
        <time>2011-04-09T13:33:56Z</time>
      </trkpt>
      <trkpt lat="45.44214" lon="5.48076">
        <ele>584.13818359375</ele>
        <time>2011-04-09T13:34:01Z</time>
      </trkpt>
      <trkpt lat="45.44221" lon="5.48077">
        <ele>584.13818359375</ele>
        <time>2011-04-09T13:34:07Z</time>
      </trkpt>
      <trkpt lat="45.44236" lon="5.48078">
        <ele>585.099609375</ele>
        <time>2011-04-09T13:34:20Z</time>
      </trkpt>
      <trkpt lat="45.44237" lon="5.48078">
        <ele>585.099609375</ele>
        <time>2011-04-09T13:34:21Z</time>
      </trkpt>
      <trkpt lat="45.44249" lon="5.48076">
        <ele>586.06079101562</ele>
        <time>2011-04-09T13:34:32Z</time>
      </trkpt>
      <trkpt lat="45.44264" lon="5.48077">
        <ele>586.54150390625</ele>
        <time>2011-04-09T13:34:47Z</time>
      </trkpt>
      <trkpt lat="45.44266" lon="5.48078">
        <ele>587.02197265625</ele>
        <time>2011-04-09T13:34:48Z</time>
      </trkpt>
      <trkpt lat="45.44273" lon="5.48081">
        <ele>587.02197265625</ele>
        <time>2011-04-09T13:34:55Z</time>
      </trkpt>
      <trkpt lat="45.44284" lon="5.48085">
        <ele>587.50268554688</ele>
        <time>2011-04-09T13:35:06Z</time>
      </trkpt>
      <trkpt lat="45.44297" lon="5.48089">
        <ele>587.50268554688</ele>
        <time>2011-04-09T13:35:17Z</time>
      </trkpt>
      <trkpt lat="45.44304" lon="5.48093">
        <ele>587.9833984375</ele>
        <time>2011-04-09T13:35:26Z</time>
      </trkpt>
      <trkpt lat="45.44316" lon="5.48097">
        <ele>588.46435546875</ele>
        <time>2011-04-09T13:35:35Z</time>
      </trkpt>
      <trkpt lat="45.44327" lon="5.481">
        <ele>588.94506835938</ele>
        <time>2011-04-09T13:35:46Z</time>
      </trkpt>
      <trkpt lat="45.44339" lon="5.48104">
        <ele>589.42553710938</ele>
        <time>2011-04-09T13:35:57Z</time>
      </trkpt>
      <trkpt lat="45.44351" lon="5.48109">
        <ele>589.90625</ele>
        <time>2011-04-09T13:36:08Z</time>
      </trkpt>
      <trkpt lat="45.44366" lon="5.48115">
        <ele>590.86743164062</ele>
        <time>2011-04-09T13:36:22Z</time>
      </trkpt>
      <trkpt lat="45.44387" lon="5.48117">
        <ele>591.82885742188</ele>
        <time>2011-04-09T13:36:38Z</time>
      </trkpt>
      <trkpt lat="45.44399" lon="5.48119">
        <ele>592.3095703125</ele>
        <time>2011-04-09T13:36:51Z</time>
      </trkpt>
      <trkpt lat="45.44413" lon="5.48124">
        <ele>592.79028320312</ele>
        <time>2011-04-09T13:37:04Z</time>
      </trkpt>
      <trkpt lat="45.44435" lon="5.48131">
        <ele>593.27075195312</ele>
        <time>2011-04-09T13:37:22Z</time>
      </trkpt>
      <trkpt lat="45.44445" lon="5.48134">
        <ele>593.27075195312</ele>
        <time>2011-04-09T13:37:33Z</time>
      </trkpt>
      <trkpt lat="45.44454" lon="5.48136">
        <ele>593.27075195312</ele>
        <time>2011-04-09T13:37:43Z</time>
      </trkpt>
      <trkpt lat="45.44466" lon="5.4814">
        <ele>593.75146484375</ele>
        <time>2011-04-09T13:37:54Z</time>
      </trkpt>
      <trkpt lat="45.44479" lon="5.4814">
        <ele>593.27075195312</ele>
        <time>2011-04-09T13:38:10Z</time>
      </trkpt>
      <trkpt lat="45.44491" lon="5.48154">
        <ele>593.27075195312</ele>
        <time>2011-04-09T13:38:23Z</time>
      </trkpt>
      <trkpt lat="45.44499" lon="5.48157">
        <ele>593.75146484375</ele>
        <time>2011-04-09T13:38:27Z</time>
      </trkpt>
      <trkpt lat="45.44509" lon="5.48163">
        <ele>594.23217773438</ele>
        <time>2011-04-09T13:38:38Z</time>
      </trkpt>
      <trkpt lat="45.4452" lon="5.48157">
        <ele>595.193359375</ele>
        <time>2011-04-09T13:38:54Z</time>
      </trkpt>
      <trkpt lat="45.44543" lon="5.48157">
        <ele>596.63549804688</ele>
        <time>2011-04-09T13:39:12Z</time>
      </trkpt>
      <trkpt lat="45.4456" lon="5.48157">
        <ele>597.5966796875</ele>
        <time>2011-04-09T13:39:30Z</time>
      </trkpt>
      <trkpt lat="45.44575" lon="5.48162">
        <ele>599.03857421875</ele>
        <time>2011-04-09T13:39:45Z</time>
      </trkpt>
      <trkpt lat="45.44584" lon="5.4817">
        <ele>600</ele>
        <time>2011-04-09T13:39:55Z</time>
      </trkpt>
      <trkpt lat="45.44594" lon="5.48183">
        <ele>600.96118164062</ele>
        <time>2011-04-09T13:40:07Z</time>
      </trkpt>
      <trkpt lat="45.44595" lon="5.48184">
        <ele>601.44189453125</ele>
        <time>2011-04-09T13:40:08Z</time>
      </trkpt>
      <trkpt lat="45.44604" lon="5.48193">
        <ele>601.92260742188</ele>
        <time>2011-04-09T13:40:20Z</time>
      </trkpt>
      <trkpt lat="45.44611" lon="5.48198">
        <ele>602.8837890625</ele>
        <time>2011-04-09T13:40:33Z</time>
      </trkpt>
      <trkpt lat="45.44621" lon="5.48199">
        <ele>602.8837890625</ele>
        <time>2011-04-09T13:40:51Z</time>
      </trkpt>
      <trkpt lat="45.44632" lon="5.48196">
        <ele>603.84521484375</ele>
        <time>2011-04-09T13:41:04Z</time>
      </trkpt>
      <trkpt lat="45.44644" lon="5.48199">
        <ele>604.806640625</ele>
        <time>2011-04-09T13:41:19Z</time>
      </trkpt>
      <trkpt lat="45.4465" lon="5.48198">
        <ele>605.28735351562</ele>
        <time>2011-04-09T13:41:28Z</time>
      </trkpt>
      <trkpt lat="45.44669" lon="5.48202">
        <ele>607.2099609375</ele>
        <time>2011-04-09T13:41:46Z</time>
      </trkpt>
      <trkpt lat="45.4468" lon="5.48202">
        <ele>608.65185546875</ele>
        <time>2011-04-09T13:41:58Z</time>
      </trkpt>
      <trkpt lat="45.44697" lon="5.48195">
        <ele>610.57446289062</ele>
        <time>2011-04-09T13:42:14Z</time>
      </trkpt>
      <trkpt lat="45.44709" lon="5.4819">
        <ele>611.05517578125</ele>
        <time>2011-04-09T13:42:29Z</time>
      </trkpt>
      <trkpt lat="45.44729" lon="5.48182">
        <ele>612.97778320312</ele>
        <time>2011-04-09T13:42:49Z</time>
      </trkpt>
      <trkpt lat="45.44747" lon="5.48172">
        <ele>614.41967773438</ele>
        <time>2011-04-09T13:43:01Z</time>
      </trkpt>
      <trkpt lat="45.44754" lon="5.48167">
        <ele>615.86181640625</ele>
        <time>2011-04-09T13:43:16Z</time>
      </trkpt>
      <trkpt lat="45.4476" lon="5.48173">
        <ele>617.3037109375</ele>
        <time>2011-04-09T13:43:28Z</time>
      </trkpt>
      <trkpt lat="45.44771" lon="5.48178">
        <ele>618.74560546875</ele>
        <time>2011-04-09T13:43:39Z</time>
      </trkpt>
      <trkpt lat="45.44776" lon="5.48184">
        <ele>619.22631835938</ele>
        <time>2011-04-09T13:43:48Z</time>
      </trkpt>
      <trkpt lat="45.44789" lon="5.48196">
        <ele>620.66845703125</ele>
        <time>2011-04-09T13:44:02Z</time>
      </trkpt>
      <trkpt lat="45.44798" lon="5.48209">
        <ele>621.62963867188</ele>
        <time>2011-04-09T13:44:16Z</time>
      </trkpt>
      <trkpt lat="45.44805" lon="5.48217">
        <ele>622.1103515625</ele>
        <time>2011-04-09T13:44:26Z</time>
      </trkpt>
      <trkpt lat="45.44809" lon="5.48222">
        <ele>622.59106445312</ele>
        <time>2011-04-09T13:44:31Z</time>
      </trkpt>
      <trkpt lat="45.44819" lon="5.48237">
        <ele>623.55249023438</ele>
        <time>2011-04-09T13:44:43Z</time>
      </trkpt>
      <trkpt lat="45.4483" lon="5.48244">
        <ele>624.513671875</ele>
        <time>2011-04-09T13:44:55Z</time>
      </trkpt>
      <trkpt lat="45.44846" lon="5.48243">
        <ele>625.95556640625</ele>
        <time>2011-04-09T13:45:08Z</time>
      </trkpt>
      <trkpt lat="45.44856" lon="5.48248">
        <ele>626.9169921875</ele>
        <time>2011-04-09T13:45:21Z</time>
      </trkpt>
      <trkpt lat="45.44867" lon="5.48253">
        <ele>628.35888671875</ele>
        <time>2011-04-09T13:45:33Z</time>
      </trkpt>
      <trkpt lat="45.44883" lon="5.48245">
        <ele>629.80078125</ele>
        <time>2011-04-09T13:45:53Z</time>
      </trkpt>
      <trkpt lat="45.44881" lon="5.48237">
        <ele>630.28149414062</ele>
        <time>2011-04-09T13:46:03Z</time>
      </trkpt>
      <trkpt lat="45.44873" lon="5.48234">
        <ele>631.24291992188</ele>
        <time>2011-04-09T13:46:12Z</time>
      </trkpt>
      <trkpt lat="45.44858" lon="5.48224">
        <ele>632.2041015625</ele>
        <time>2011-04-09T13:46:28Z</time>
      </trkpt>
      <trkpt lat="45.44841" lon="5.48206">
        <ele>633.64599609375</ele>
        <time>2011-04-09T13:46:43Z</time>
      </trkpt>
      <trkpt lat="45.4483" lon="5.48188">
        <ele>635.08813476562</ele>
        <time>2011-04-09T13:47:03Z</time>
      </trkpt>
      <trkpt lat="45.44822" lon="5.48173">
        <ele>636.04956054688</ele>
        <time>2011-04-09T13:47:15Z</time>
      </trkpt>
      <trkpt lat="45.44814" lon="5.48159">
        <ele>637.97216796875</ele>
        <time>2011-04-09T13:47:31Z</time>
      </trkpt>
      <trkpt lat="45.44806" lon="5.48143">
        <ele>638.93359375</ele>
        <time>2011-04-09T13:47:43Z</time>
      </trkpt>
      <trkpt lat="45.44795" lon="5.48126">
        <ele>639.89477539062</ele>
        <time>2011-04-09T13:47:59Z</time>
      </trkpt>
      <trkpt lat="45.44797" lon="5.48102">
        <ele>641.33666992188</ele>
        <time>2011-04-09T13:48:13Z</time>
      </trkpt>
      <trkpt lat="45.44797" lon="5.48087">
        <ele>642.77880859375</ele>
        <time>2011-04-09T13:48:26Z</time>
      </trkpt>
      <trkpt lat="45.44798" lon="5.48081">
        <ele>643.25927734375</ele>
        <time>2011-04-09T13:48:32Z</time>
      </trkpt>
      <trkpt lat="45.44797" lon="5.48066">
        <ele>644.701171875</ele>
        <time>2011-04-09T13:48:44Z</time>
      </trkpt>
      <trkpt lat="45.44793" lon="5.48047">
        <ele>646.14331054688</ele>
        <time>2011-04-09T13:48:59Z</time>
      </trkpt>
      <trkpt lat="45.44784" lon="5.48036">
        <ele>647.1044921875</ele>
        <time>2011-04-09T13:49:16Z</time>
      </trkpt>
      <trkpt lat="45.44771" lon="5.48035">
        <ele>648.06591796875</ele>
        <time>2011-04-09T13:49:37Z</time>
      </trkpt>
      <trkpt lat="45.44757" lon="5.4803">
        <ele>649.5078125</ele>
        <time>2011-04-09T13:49:50Z</time>
      </trkpt>
      <trkpt lat="45.44736" lon="5.48023">
        <ele>651.43041992188</ele>
        <time>2011-04-09T13:50:07Z</time>
      </trkpt>
      <trkpt lat="45.44723" lon="5.48005">
        <ele>653.35327148438</ele>
        <time>2011-04-09T13:50:24Z</time>
      </trkpt>
      <trkpt lat="45.44723" lon="5.47991">
        <ele>654.31469726562</ele>
        <time>2011-04-09T13:50:37Z</time>
      </trkpt>
      <trkpt lat="45.44724" lon="5.4798">
        <ele>655.75659179688</ele>
        <time>2011-04-09T13:50:46Z</time>
      </trkpt>
      <trkpt lat="45.44734" lon="5.47973">
        <ele>656.7177734375</ele>
        <time>2011-04-09T13:50:56Z</time>
      </trkpt>
      <trkpt lat="45.44744" lon="5.4797">
        <ele>657.19848632812</ele>
        <time>2011-04-09T13:51:07Z</time>
      </trkpt>
      <trkpt lat="45.44754" lon="5.47974">
        <ele>658.15991210938</ele>
        <time>2011-04-09T13:51:18Z</time>
      </trkpt>
      <trkpt lat="45.44767" lon="5.47971">
        <ele>660.08227539062</ele>
        <time>2011-04-09T13:51:30Z</time>
      </trkpt>
      <trkpt lat="45.44778" lon="5.47969">
        <ele>661.5244140625</ele>
        <time>2011-04-09T13:51:40Z</time>
      </trkpt>
      <trkpt lat="45.44789" lon="5.47963">
        <ele>661.5244140625</ele>
        <time>2011-04-09T13:51:49Z</time>
      </trkpt>
      <trkpt lat="45.44799" lon="5.47959">
        <ele>663.44702148438</ele>
        <time>2011-04-09T13:52:01Z</time>
      </trkpt>
      <trkpt lat="45.44808" lon="5.47958">
        <ele>663.92749023438</ele>
        <time>2011-04-09T13:52:15Z</time>
      </trkpt>
      <trkpt lat="45.4481" lon="5.47951">
        <ele>663.92749023438</ele>
        <time>2011-04-09T13:52:37Z</time>
      </trkpt>
      <trkpt lat="45.44823" lon="5.47957">
        <ele>665.36962890625</ele>
        <time>2011-04-09T13:54:12Z</time>
      </trkpt>
      <trkpt lat="45.44835" lon="5.47958">
        <ele>666.33081054688</ele>
        <time>2011-04-09T13:54:23Z</time>
      </trkpt>
      <trkpt lat="45.44841" lon="5.47958">
        <ele>667.77270507812</ele>
        <time>2011-04-09T13:54:37Z</time>
      </trkpt>
      <trkpt lat="45.44841" lon="5.47946">
        <ele>669.21508789062</ele>
        <time>2011-04-09T13:54:50Z</time>
      </trkpt>
      <trkpt lat="45.4483" lon="5.47938">
        <ele>669.69580078125</ele>
        <time>2011-04-09T13:55:02Z</time>
      </trkpt>
      <trkpt lat="45.44818" lon="5.47935">
        <ele>670.65698242188</ele>
        <time>2011-04-09T13:55:13Z</time>
      </trkpt>
      <trkpt lat="45.44804" lon="5.47925">
        <ele>672.09887695312</ele>
        <time>2011-04-09T13:55:29Z</time>
      </trkpt>
      <trkpt lat="45.44784" lon="5.4791">
        <ele>674.50219726562</ele>
        <time>2011-04-09T13:55:52Z</time>
      </trkpt>
      <trkpt lat="45.44777" lon="5.47903">
        <ele>675.94409179688</ele>
        <time>2011-04-09T13:56:04Z</time>
      </trkpt>
      <trkpt lat="45.44765" lon="5.47888">
        <ele>677.38623046875</ele>
        <time>2011-04-09T13:56:19Z</time>
      </trkpt>
      <trkpt lat="45.44758" lon="5.47868">
        <ele>678.34741210938</ele>
        <time>2011-04-09T13:56:30Z</time>
      </trkpt>
      <trkpt lat="45.44756" lon="5.47848">
        <ele>680.27001953125</ele>
        <time>2011-04-09T13:56:43Z</time>
      </trkpt>
      <trkpt lat="45.44759" lon="5.4784">
        <ele>680.75073242188</ele>
        <time>2011-04-09T13:56:50Z</time>
      </trkpt>
      <trkpt lat="45.44762" lon="5.47827">
        <ele>682.19262695312</ele>
        <time>2011-04-09T13:57:02Z</time>
      </trkpt>
      <trkpt lat="45.44764" lon="5.47817">
        <ele>683.15380859375</ele>
        <time>2011-04-09T13:57:11Z</time>
      </trkpt>
      <trkpt lat="45.44766" lon="5.47807">
        <ele>683.63452148438</ele>
        <time>2011-04-09T13:57:20Z</time>
      </trkpt>
      <trkpt lat="45.44767" lon="5.47794">
        <ele>684.59619140625</ele>
        <time>2011-04-09T13:57:29Z</time>
      </trkpt>
      <trkpt lat="45.44758" lon="5.47779">
        <ele>685.55737304688</ele>
        <time>2011-04-09T13:57:43Z</time>
      </trkpt>
      <trkpt lat="45.44744" lon="5.47768">
        <ele>686.99926757812</ele>
        <time>2011-04-09T13:57:58Z</time>
      </trkpt>
      <trkpt lat="45.44731" lon="5.47756">
        <ele>688.92211914062</ele>
        <time>2011-04-09T13:58:13Z</time>
      </trkpt>
      <trkpt lat="45.44723" lon="5.47746">
        <ele>690.84448242188</ele>
        <time>2011-04-09T13:58:26Z</time>
      </trkpt>
      <trkpt lat="45.44709" lon="5.47736">
        <ele>692.28662109375</ele>
        <time>2011-04-09T13:58:41Z</time>
      </trkpt>
      <trkpt lat="45.44707" lon="5.47735">
        <ele>692.28662109375</ele>
        <time>2011-04-09T13:58:42Z</time>
      </trkpt>
      <trkpt lat="45.44697" lon="5.47725">
        <ele>693.24780273438</ele>
        <time>2011-04-09T13:58:54Z</time>
      </trkpt>
      <trkpt lat="45.44689" lon="5.47717">
        <ele>694.20922851562</ele>
        <time>2011-04-09T13:59:05Z</time>
      </trkpt>
      <trkpt lat="45.4468" lon="5.47715">
        <ele>694.68969726562</ele>
        <time>2011-04-09T13:59:15Z</time>
      </trkpt>
      <trkpt lat="45.44668" lon="5.47709">
        <ele>695.17041015625</ele>
        <time>2011-04-09T13:59:27Z</time>
      </trkpt>
      <trkpt lat="45.4466" lon="5.47695">
        <ele>696.61254882812</ele>
        <time>2011-04-09T13:59:39Z</time>
      </trkpt>
      <trkpt lat="45.44657" lon="5.47683">
        <ele>698.05444335938</ele>
        <time>2011-04-09T13:59:52Z</time>
      </trkpt>
      <trkpt lat="45.44654" lon="5.47671">
        <ele>699.015625</ele>
        <time>2011-04-09T14:00:02Z</time>
      </trkpt>
      <trkpt lat="45.44648" lon="5.47655">
        <ele>700.4580078125</ele>
        <time>2011-04-09T14:00:16Z</time>
      </trkpt>
      <trkpt lat="45.44644" lon="5.47647">
        <ele>701.41918945312</ele>
        <time>2011-04-09T14:00:26Z</time>
      </trkpt>
      <trkpt lat="45.44639" lon="5.47632">
        <ele>702.86108398438</ele>
        <time>2011-04-09T14:00:39Z</time>
      </trkpt>
      <trkpt lat="45.44636" lon="5.47615">
        <ele>703.82250976562</ele>
        <time>2011-04-09T14:00:50Z</time>
      </trkpt>
      <trkpt lat="45.44631" lon="5.47602">
        <ele>704.30322265625</ele>
        <time>2011-04-09T14:01:04Z</time>
      </trkpt>
      <trkpt lat="45.44627" lon="5.47596">
        <ele>704.30322265625</ele>
        <time>2011-04-09T14:01:28Z</time>
      </trkpt>
      <trkpt lat="45.44623" lon="5.47589">
        <ele>704.30322265625</ele>
        <time>2011-04-09T14:01:41Z</time>
      </trkpt>
      <trkpt lat="45.44593" lon="5.47575">
        <ele>704.30322265625</ele>
        <time>2011-04-09T14:04:52Z</time>
      </trkpt>
      <trkpt lat="45.44569" lon="5.47572">
        <ele>705.26440429688</ele>
        <time>2011-04-09T14:05:11Z</time>
      </trkpt>
      <trkpt lat="45.44552" lon="5.47569">
        <ele>705.26440429688</ele>
        <time>2011-04-09T14:05:26Z</time>
      </trkpt>
      <trkpt lat="45.44526" lon="5.47568">
        <ele>705.26440429688</ele>
        <time>2011-04-09T14:05:46Z</time>
      </trkpt>
      <trkpt lat="45.44515" lon="5.47552">
        <ele>706.70629882812</ele>
        <time>2011-04-09T14:06:04Z</time>
      </trkpt>
      <trkpt lat="45.44505" lon="5.47542">
        <ele>707.66772460938</ele>
        <time>2011-04-09T14:06:15Z</time>
      </trkpt>
      <trkpt lat="45.44489" lon="5.47531">
        <ele>708.62890625</ele>
        <time>2011-04-09T14:06:31Z</time>
      </trkpt>
      <trkpt lat="45.44474" lon="5.47523">
        <ele>708.62890625</ele>
        <time>2011-04-09T14:06:49Z</time>
      </trkpt>
      <trkpt lat="45.44456" lon="5.47512">
        <ele>708.62890625</ele>
        <time>2011-04-09T14:07:07Z</time>
      </trkpt>
      <trkpt lat="45.44446" lon="5.47504">
        <ele>709.10961914062</ele>
        <time>2011-04-09T14:07:18Z</time>
      </trkpt>
      <trkpt lat="45.44427" lon="5.47482">
        <ele>709.10961914062</ele>
        <time>2011-04-09T14:07:38Z</time>
      </trkpt>
      <trkpt lat="45.44408" lon="5.47454">
        <ele>709.10961914062</ele>
        <time>2011-04-09T14:08:00Z</time>
      </trkpt>
      <trkpt lat="45.44386" lon="5.4744">
        <ele>708.62890625</ele>
        <time>2011-04-09T14:08:18Z</time>
      </trkpt>
      <trkpt lat="45.44368" lon="5.47418">
        <ele>709.10961914062</ele>
        <time>2011-04-09T14:08:34Z</time>
      </trkpt>
      <trkpt lat="45.4436" lon="5.47396">
        <ele>711.51293945312</ele>
        <time>2011-04-09T14:08:49Z</time>
      </trkpt>
      <trkpt lat="45.44351" lon="5.47383">
        <ele>712.47412109375</ele>
        <time>2011-04-09T14:09:04Z</time>
      </trkpt>
      <trkpt lat="45.44332" lon="5.47368">
        <ele>712.47412109375</ele>
        <time>2011-04-09T14:09:20Z</time>
      </trkpt>
      <trkpt lat="45.44327" lon="5.47363">
        <ele>712.47412109375</ele>
        <time>2011-04-09T14:09:24Z</time>
      </trkpt>
      <trkpt lat="45.44313" lon="5.4734">
        <ele>711.99365234375</ele>
        <time>2011-04-09T14:09:43Z</time>
      </trkpt>
      <trkpt lat="45.44308" lon="5.47321">
        <ele>712.47412109375</ele>
        <time>2011-04-09T14:09:58Z</time>
      </trkpt>
      <trkpt lat="45.44305" lon="5.47302">
        <ele>712.95483398438</ele>
        <time>2011-04-09T14:10:11Z</time>
      </trkpt>
      <trkpt lat="45.44301" lon="5.47278">
        <ele>713.435546875</ele>
        <time>2011-04-09T14:10:27Z</time>
      </trkpt>
      <trkpt lat="45.4429" lon="5.47254">
        <ele>714.87744140625</ele>
        <time>2011-04-09T14:10:42Z</time>
      </trkpt>
      <trkpt lat="45.4428" lon="5.47231">
        <ele>713.435546875</ele>
        <time>2011-04-09T14:10:58Z</time>
      </trkpt>
      <trkpt lat="45.44287" lon="5.47211">
        <ele>712.47412109375</ele>
        <time>2011-04-09T14:11:11Z</time>
      </trkpt>
      <trkpt lat="45.44297" lon="5.47188">
        <ele>710.55151367188</ele>
        <time>2011-04-09T14:11:27Z</time>
      </trkpt>
      <trkpt lat="45.44301" lon="5.47165">
        <ele>708.62890625</ele>
        <time>2011-04-09T14:11:42Z</time>
      </trkpt>
      <trkpt lat="45.44309" lon="5.47147">
        <ele>709.10961914062</ele>
        <time>2011-04-09T14:11:57Z</time>
      </trkpt>
      <trkpt lat="45.44333" lon="5.47132">
        <ele>708.1484375</ele>
        <time>2011-04-09T14:12:13Z</time>
      </trkpt>
      <trkpt lat="45.44352" lon="5.47118">
        <ele>706.70629882812</ele>
        <time>2011-04-09T14:12:30Z</time>
      </trkpt>
      <trkpt lat="45.44361" lon="5.47102">
        <ele>707.18701171875</ele>
        <time>2011-04-09T14:12:42Z</time>
      </trkpt>
      <trkpt lat="45.44381" lon="5.47087">
        <ele>707.66772460938</ele>
        <time>2011-04-09T14:13:03Z</time>
      </trkpt>
      <trkpt lat="45.44392" lon="5.47077">
        <ele>708.62890625</ele>
        <time>2011-04-09T14:13:16Z</time>
      </trkpt>
      <trkpt lat="45.44401" lon="5.47064">
        <ele>709.10961914062</ele>
        <time>2011-04-09T14:13:27Z</time>
      </trkpt>
      <trkpt lat="45.44413" lon="5.47048">
        <ele>707.66772460938</ele>
        <time>2011-04-09T14:13:41Z</time>
      </trkpt>
      <trkpt lat="45.44418" lon="5.47031">
        <ele>707.66772460938</ele>
        <time>2011-04-09T14:13:57Z</time>
      </trkpt>
      <trkpt lat="45.44426" lon="5.47005">
        <ele>706.70629882812</ele>
        <time>2011-04-09T14:14:13Z</time>
      </trkpt>
      <trkpt lat="45.44429" lon="5.46987">
        <ele>706.70629882812</ele>
        <time>2011-04-09T14:14:29Z</time>
      </trkpt>
      <trkpt lat="45.4443" lon="5.46985">
        <ele>706.70629882812</ele>
        <time>2011-04-09T14:14:30Z</time>
      </trkpt>
      <trkpt lat="45.44429" lon="5.46954">
        <ele>708.1484375</ele>
        <time>2011-04-09T14:14:45Z</time>
      </trkpt>
      <trkpt lat="45.4443" lon="5.4693">
        <ele>709.59033203125</ele>
        <time>2011-04-09T14:15:01Z</time>
      </trkpt>
      <trkpt lat="45.44437" lon="5.46915">
        <ele>710.55151367188</ele>
        <time>2011-04-09T14:15:16Z</time>
      </trkpt>
      <trkpt lat="45.44451" lon="5.46895">
        <ele>711.51293945312</ele>
        <time>2011-04-09T14:15:37Z</time>
      </trkpt>
      <trkpt lat="45.44458" lon="5.46886">
        <ele>711.99365234375</ele>
        <time>2011-04-09T14:16:09Z</time>
      </trkpt>
      <trkpt lat="45.44461" lon="5.46867">
        <ele>709.10961914062</ele>
        <time>2011-04-09T14:17:46Z</time>
      </trkpt>
      <trkpt lat="45.44465" lon="5.46847">
        <ele>708.1484375</ele>
        <time>2011-04-09T14:17:57Z</time>
      </trkpt>
      <trkpt lat="45.44467" lon="5.46839">
        <ele>707.66772460938</ele>
        <time>2011-04-09T14:18:00Z</time>
      </trkpt>
      <trkpt lat="45.44471" lon="5.46818">
        <ele>706.2255859375</ele>
        <time>2011-04-09T14:18:13Z</time>
      </trkpt>
      <trkpt lat="45.44471" lon="5.46815">
        <ele>705.7451171875</ele>
        <time>2011-04-09T14:18:15Z</time>
      </trkpt>
      <trkpt lat="45.44475" lon="5.46792">
        <ele>703.82250976562</ele>
        <time>2011-04-09T14:18:33Z</time>
      </trkpt>
      <trkpt lat="45.44488" lon="5.46753">
        <ele>701.41918945312</ele>
        <time>2011-04-09T14:18:54Z</time>
      </trkpt>
      <trkpt lat="45.44496" lon="5.46724">
        <ele>699.015625</ele>
        <time>2011-04-09T14:19:13Z</time>
      </trkpt>
      <trkpt lat="45.44509" lon="5.46705">
        <ele>696.61254882812</ele>
        <time>2011-04-09T14:19:32Z</time>
      </trkpt>
      <trkpt lat="45.44516" lon="5.46674">
        <ele>694.20922851562</ele>
        <time>2011-04-09T14:19:50Z</time>
      </trkpt>
      <trkpt lat="45.44523" lon="5.46649">
        <ele>693.728515625</ele>
        <time>2011-04-09T14:20:08Z</time>
      </trkpt>
      <trkpt lat="45.44525" lon="5.46649">
        <ele>695.17041015625</ele>
        <time>2011-04-09T14:20:30Z</time>
      </trkpt>
      <trkpt lat="45.4453" lon="5.46666">
        <ele>700.4580078125</ele>
        <time>2011-04-09T14:24:32Z</time>
      </trkpt>
      <trkpt lat="45.44543" lon="5.46694">
        <ele>702.86108398438</ele>
        <time>2011-04-09T14:24:53Z</time>
      </trkpt>
      <trkpt lat="45.44552" lon="5.46706">
        <ele>704.78369140625</ele>
        <time>2011-04-09T14:25:09Z</time>
      </trkpt>
      <trkpt lat="45.44564" lon="5.46717">
        <ele>706.70629882812</ele>
        <time>2011-04-09T14:25:22Z</time>
      </trkpt>
      <trkpt lat="45.44573" lon="5.46725">
        <ele>708.1484375</ele>
        <time>2011-04-09T14:25:36Z</time>
      </trkpt>
      <trkpt lat="45.44585" lon="5.46742">
        <ele>709.59033203125</ele>
        <time>2011-04-09T14:25:52Z</time>
      </trkpt>
      <trkpt lat="45.44591" lon="5.46746">
        <ele>709.59033203125</ele>
        <time>2011-04-09T14:25:56Z</time>
      </trkpt>
      <trkpt lat="45.44604" lon="5.46764">
        <ele>711.0322265625</ele>
        <time>2011-04-09T14:26:17Z</time>
      </trkpt>
      <trkpt lat="45.44616" lon="5.46777">
        <ele>712.47412109375</ele>
        <time>2011-04-09T14:26:32Z</time>
      </trkpt>
      <trkpt lat="45.44618" lon="5.46813">
        <ele>714.87744140625</ele>
        <time>2011-04-09T14:26:52Z</time>
      </trkpt>
      <trkpt lat="45.44627" lon="5.46829">
        <ele>717.28100585938</ele>
        <time>2011-04-09T14:27:10Z</time>
      </trkpt>
      <trkpt lat="45.44637" lon="5.46838">
        <ele>719.68432617188</ele>
        <time>2011-04-09T14:27:26Z</time>
      </trkpt>
      <trkpt lat="45.44645" lon="5.46848">
        <ele>722.56811523438</ele>
        <time>2011-04-09T14:27:43Z</time>
      </trkpt>
      <trkpt lat="45.44648" lon="5.46866">
        <ele>724.49072265625</ele>
        <time>2011-04-09T14:27:58Z</time>
      </trkpt>
      <trkpt lat="45.44653" lon="5.46876">
        <ele>726.41333007812</ele>
        <time>2011-04-09T14:28:15Z</time>
      </trkpt>
      <trkpt lat="45.44661" lon="5.4689">
        <ele>727.37475585938</ele>
        <time>2011-04-09T14:28:30Z</time>
      </trkpt>
      <trkpt lat="45.44672" lon="5.46912">
        <ele>725.9326171875</ele>
        <time>2011-04-09T14:28:52Z</time>
      </trkpt>
      <trkpt lat="45.44689" lon="5.46929">
        <ele>724.01000976562</ele>
        <time>2011-04-09T14:29:11Z</time>
      </trkpt>
      <trkpt lat="45.44704" lon="5.46941">
        <ele>725.45190429688</ele>
        <time>2011-04-09T14:29:28Z</time>
      </trkpt>
      <trkpt lat="45.44718" lon="5.46954">
        <ele>725.9326171875</ele>
        <time>2011-04-09T14:29:42Z</time>
      </trkpt>
      <trkpt lat="45.44739" lon="5.46973">
        <ele>725.9326171875</ele>
        <time>2011-04-09T14:30:02Z</time>
      </trkpt>
      <trkpt lat="45.44755" lon="5.46993">
        <ele>726.41333007812</ele>
        <time>2011-04-09T14:30:21Z</time>
      </trkpt>
      <trkpt lat="45.44767" lon="5.47005">
        <ele>726.89404296875</ele>
        <time>2011-04-09T14:30:34Z</time>
      </trkpt>
      <trkpt lat="45.44784" lon="5.47012">
        <ele>726.41333007812</ele>
        <time>2011-04-09T14:30:52Z</time>
      </trkpt>
      <trkpt lat="45.44793" lon="5.47022">
        <ele>725.9326171875</ele>
        <time>2011-04-09T14:31:03Z</time>
      </trkpt>
      <trkpt lat="45.44813" lon="5.47041">
        <ele>725.45190429688</ele>
        <time>2011-04-09T14:31:20Z</time>
      </trkpt>
      <trkpt lat="45.44837" lon="5.47052">
        <ele>725.9326171875</ele>
        <time>2011-04-09T14:31:35Z</time>
      </trkpt>
      <trkpt lat="45.44856" lon="5.4706">
        <ele>725.9326171875</ele>
        <time>2011-04-09T14:31:50Z</time>
      </trkpt>
      <trkpt lat="45.44885" lon="5.47071">
        <ele>723.52954101562</ele>
        <time>2011-04-09T14:32:13Z</time>
      </trkpt>
      <trkpt lat="45.44899" lon="5.47074">
        <ele>722.08740234375</ele>
        <time>2011-04-09T14:32:30Z</time>
      </trkpt>
      <trkpt lat="45.44919" lon="5.47075">
        <ele>722.08740234375</ele>
        <time>2011-04-09T14:32:47Z</time>
      </trkpt>
      <trkpt lat="45.44934" lon="5.47076">
        <ele>722.56811523438</ele>
        <time>2011-04-09T14:33:03Z</time>
      </trkpt>
      <trkpt lat="45.44947" lon="5.4709">
        <ele>723.52954101562</ele>
        <time>2011-04-09T14:33:20Z</time>
      </trkpt>
      <trkpt lat="45.44964" lon="5.47099">
        <ele>724.01000976562</ele>
        <time>2011-04-09T14:33:34Z</time>
      </trkpt>
      <trkpt lat="45.44977" lon="5.4712">
        <ele>724.49072265625</ele>
        <time>2011-04-09T14:33:52Z</time>
      </trkpt>
      <trkpt lat="45.44986" lon="5.47133">
        <ele>724.49072265625</ele>
        <time>2011-04-09T14:34:02Z</time>
      </trkpt>
      <trkpt lat="45.44993" lon="5.47156">
        <ele>723.52954101562</ele>
        <time>2011-04-09T14:34:19Z</time>
      </trkpt>
      <trkpt lat="45.45" lon="5.47183">
        <ele>724.01000976562</ele>
        <time>2011-04-09T14:34:37Z</time>
      </trkpt>
      <trkpt lat="45.45011" lon="5.47194">
        <ele>724.01000976562</ele>
        <time>2011-04-09T14:34:49Z</time>
      </trkpt>
      <trkpt lat="45.45021" lon="5.47212">
        <ele>724.01000976562</ele>
        <time>2011-04-09T14:35:08Z</time>
      </trkpt>
      <trkpt lat="45.45039" lon="5.47235">
        <ele>722.56811523438</ele>
        <time>2011-04-09T14:35:28Z</time>
      </trkpt>
      <trkpt lat="45.45042" lon="5.47238">
        <ele>722.56811523438</ele>
        <time>2011-04-09T14:35:56Z</time>
      </trkpt>
      <trkpt lat="45.45059" lon="5.47237">
        <ele>719.68432617188</ele>
        <time>2011-04-09T14:36:22Z</time>
      </trkpt>
      <trkpt lat="45.45071" lon="5.4723">
        <ele>718.72290039062</ele>
        <time>2011-04-09T14:36:34Z</time>
      </trkpt>
      <trkpt lat="45.4509" lon="5.47223">
        <ele>720.6455078125</ele>
        <time>2011-04-09T14:36:53Z</time>
      </trkpt>
      <trkpt lat="45.45111" lon="5.47221">
        <ele>721.60668945312</ele>
        <time>2011-04-09T14:37:04Z</time>
      </trkpt>
      <trkpt lat="45.45127" lon="5.47218">
        <ele>722.56811523438</ele>
        <time>2011-04-09T14:37:16Z</time>
      </trkpt>
      <trkpt lat="45.4514" lon="5.47214">
        <ele>723.048828125</ele>
        <time>2011-04-09T14:37:28Z</time>
      </trkpt>
      <trkpt lat="45.45158" lon="5.47207">
        <ele>724.97143554688</ele>
        <time>2011-04-09T14:37:44Z</time>
      </trkpt>
      <trkpt lat="45.45167" lon="5.47203">
        <ele>726.41333007812</ele>
        <time>2011-04-09T14:37:55Z</time>
      </trkpt>
      <trkpt lat="45.45176" lon="5.47206">
        <ele>727.37475585938</ele>
        <time>2011-04-09T14:38:10Z</time>
      </trkpt>
      <trkpt lat="45.45179" lon="5.47209">
        <ele>726.89404296875</ele>
        <time>2011-04-09T14:39:41Z</time>
      </trkpt>
      <trkpt lat="45.45181" lon="5.47212">
        <ele>726.89404296875</ele>
        <time>2011-04-09T14:40:01Z</time>
      </trkpt>
      <trkpt lat="45.45194" lon="5.47221">
        <ele>726.89404296875</ele>
        <time>2011-04-09T14:40:20Z</time>
      </trkpt>
      <trkpt lat="45.45197" lon="5.47226">
        <ele>726.89404296875</ele>
        <time>2011-04-09T14:40:28Z</time>
      </trkpt>
      <trkpt lat="45.45207" lon="5.47239">
        <ele>726.41333007812</ele>
        <time>2011-04-09T14:40:42Z</time>
      </trkpt>
      <trkpt lat="45.45217" lon="5.47254">
        <ele>725.9326171875</ele>
        <time>2011-04-09T14:40:56Z</time>
      </trkpt>
      <trkpt lat="45.45223" lon="5.4727">
        <ele>725.9326171875</ele>
        <time>2011-04-09T14:41:08Z</time>
      </trkpt>
      <trkpt lat="45.45232" lon="5.4729">
        <ele>725.9326171875</ele>
        <time>2011-04-09T14:41:25Z</time>
      </trkpt>
      <trkpt lat="45.45237" lon="5.47297">
        <ele>725.9326171875</ele>
        <time>2011-04-09T14:41:30Z</time>
      </trkpt>
      <trkpt lat="45.45245" lon="5.47306">
        <ele>725.9326171875</ele>
        <time>2011-04-09T14:41:38Z</time>
      </trkpt>
      <trkpt lat="45.45247" lon="5.4731">
        <ele>725.45190429688</ele>
        <time>2011-04-09T14:41:41Z</time>
      </trkpt>
      <trkpt lat="45.45249" lon="5.47313">
        <ele>725.45190429688</ele>
        <time>2011-04-09T14:41:43Z</time>
      </trkpt>
      <trkpt lat="45.4526" lon="5.47326">
        <ele>724.97143554688</ele>
        <time>2011-04-09T14:41:55Z</time>
      </trkpt>
      <trkpt lat="45.45269" lon="5.47339">
        <ele>724.97143554688</ele>
        <time>2011-04-09T14:42:05Z</time>
      </trkpt>
      <trkpt lat="45.4528" lon="5.47358">
        <ele>724.49072265625</ele>
        <time>2011-04-09T14:42:20Z</time>
      </trkpt>
      <trkpt lat="45.45295" lon="5.47375">
        <ele>724.97143554688</ele>
        <time>2011-04-09T14:42:34Z</time>
      </trkpt>
      <trkpt lat="45.45308" lon="5.4739">
        <ele>725.9326171875</ele>
        <time>2011-04-09T14:42:48Z</time>
      </trkpt>
      <trkpt lat="45.45317" lon="5.474">
        <ele>725.9326171875</ele>
        <time>2011-04-09T14:43:00Z</time>
      </trkpt>
      <trkpt lat="45.45321" lon="5.47406">
        <ele>726.41333007812</ele>
        <time>2011-04-09T14:43:06Z</time>
      </trkpt>
      <trkpt lat="45.45335" lon="5.47426">
        <ele>726.41333007812</ele>
        <time>2011-04-09T14:43:19Z</time>
      </trkpt>
      <trkpt lat="45.45346" lon="5.47442">
        <ele>726.41333007812</ele>
        <time>2011-04-09T14:43:32Z</time>
      </trkpt>
      <trkpt lat="45.45353" lon="5.47454">
        <ele>726.41333007812</ele>
        <time>2011-04-09T14:43:44Z</time>
      </trkpt>
      <trkpt lat="45.45362" lon="5.47469">
        <ele>726.41333007812</ele>
        <time>2011-04-09T14:43:54Z</time>
      </trkpt>
      <trkpt lat="45.45374" lon="5.47491">
        <ele>724.97143554688</ele>
        <time>2011-04-09T14:44:14Z</time>
      </trkpt>
      <trkpt lat="45.45389" lon="5.47511">
        <ele>724.01000976562</ele>
        <time>2011-04-09T14:44:34Z</time>
      </trkpt>
      <trkpt lat="45.45416" lon="5.47514">
        <ele>724.01000976562</ele>
        <time>2011-04-09T14:44:51Z</time>
      </trkpt>
      <trkpt lat="45.45441" lon="5.47531">
        <ele>724.01000976562</ele>
        <time>2011-04-09T14:45:15Z</time>
      </trkpt>
      <trkpt lat="45.45463" lon="5.47547">
        <ele>723.52954101562</ele>
        <time>2011-04-09T14:45:33Z</time>
      </trkpt>
      <trkpt lat="45.45467" lon="5.47548">
        <ele>723.048828125</ele>
        <time>2011-04-09T14:45:36Z</time>
      </trkpt>
      <trkpt lat="45.45485" lon="5.4756">
        <ele>721.60668945312</ele>
        <time>2011-04-09T14:45:56Z</time>
      </trkpt>
      <trkpt lat="45.45499" lon="5.47571">
        <ele>720.6455078125</ele>
        <time>2011-04-09T14:46:12Z</time>
      </trkpt>
      <trkpt lat="45.45509" lon="5.47579">
        <ele>719.68432617188</ele>
        <time>2011-04-09T14:46:23Z</time>
      </trkpt>
      <trkpt lat="45.45518" lon="5.47586">
        <ele>718.72290039062</ele>
        <time>2011-04-09T14:46:33Z</time>
      </trkpt>
      <trkpt lat="45.45534" lon="5.47597">
        <ele>717.28100585938</ele>
        <time>2011-04-09T14:46:48Z</time>
      </trkpt>
      <trkpt lat="45.45548" lon="5.47613">
        <ele>715.35815429688</ele>
        <time>2011-04-09T14:47:06Z</time>
      </trkpt>
      <trkpt lat="45.45567" lon="5.47629">
        <ele>713.916015625</ele>
        <time>2011-04-09T14:47:24Z</time>
      </trkpt>
      <trkpt lat="45.45589" lon="5.47642">
        <ele>712.47412109375</ele>
        <time>2011-04-09T14:47:41Z</time>
      </trkpt>
      <trkpt lat="45.45614" lon="5.47639">
        <ele>711.0322265625</ele>
        <time>2011-04-09T14:47:57Z</time>
      </trkpt>
      <trkpt lat="45.45615" lon="5.47639">
        <ele>710.55151367188</ele>
        <time>2011-04-09T14:49:58Z</time>
      </trkpt>
      <trkpt lat="45.45631" lon="5.47635">
        <ele>710.55151367188</ele>
        <time>2011-04-09T14:50:12Z</time>
      </trkpt>
      <trkpt lat="45.45645" lon="5.47639">
        <ele>709.10961914062</ele>
        <time>2011-04-09T14:50:28Z</time>
      </trkpt>
      <trkpt lat="45.45668" lon="5.47647">
        <ele>709.10961914062</ele>
        <time>2011-04-09T14:50:48Z</time>
      </trkpt>
      <trkpt lat="45.45693" lon="5.47652">
        <ele>709.10961914062</ele>
        <time>2011-04-09T14:51:04Z</time>
      </trkpt>
      <trkpt lat="45.45716" lon="5.47658">
        <ele>709.59033203125</ele>
        <time>2011-04-09T14:51:21Z</time>
      </trkpt>
      <trkpt lat="45.45731" lon="5.47662">
        <ele>709.59033203125</ele>
        <time>2011-04-09T14:51:34Z</time>
      </trkpt>
      <trkpt lat="45.45753" lon="5.47681">
        <ele>709.59033203125</ele>
        <time>2011-04-09T14:51:53Z</time>
      </trkpt>
      <trkpt lat="45.45766" lon="5.477">
        <ele>709.10961914062</ele>
        <time>2011-04-09T14:52:12Z</time>
      </trkpt>
      <trkpt lat="45.45781" lon="5.47723">
        <ele>709.59033203125</ele>
        <time>2011-04-09T14:52:28Z</time>
      </trkpt>
      <trkpt lat="45.45803" lon="5.47748">
        <ele>709.59033203125</ele>
        <time>2011-04-09T14:52:47Z</time>
      </trkpt>
      <trkpt lat="45.45818" lon="5.47767">
        <ele>709.59033203125</ele>
        <time>2011-04-09T14:53:02Z</time>
      </trkpt>
      <trkpt lat="45.45835" lon="5.47792">
        <ele>710.07080078125</ele>
        <time>2011-04-09T14:53:20Z</time>
      </trkpt>
      <trkpt lat="45.45855" lon="5.47815">
        <ele>711.0322265625</ele>
        <time>2011-04-09T14:53:38Z</time>
      </trkpt>
      <trkpt lat="45.4587" lon="5.47834">
        <ele>711.0322265625</ele>
        <time>2011-04-09T14:53:55Z</time>
      </trkpt>
      <trkpt lat="45.45883" lon="5.47855">
        <ele>711.0322265625</ele>
        <time>2011-04-09T14:54:13Z</time>
      </trkpt>
      <trkpt lat="45.45895" lon="5.47872">
        <ele>710.55151367188</ele>
        <time>2011-04-09T14:54:26Z</time>
      </trkpt>
      <trkpt lat="45.45906" lon="5.47886">
        <ele>711.0322265625</ele>
        <time>2011-04-09T14:54:38Z</time>
      </trkpt>
      <trkpt lat="45.45914" lon="5.47907">
        <ele>710.07080078125</ele>
        <time>2011-04-09T14:54:52Z</time>
      </trkpt>
      <trkpt lat="45.45927" lon="5.47918">
        <ele>710.07080078125</ele>
        <time>2011-04-09T14:55:05Z</time>
      </trkpt>
      <trkpt lat="45.4593" lon="5.47931">
        <ele>709.59033203125</ele>
        <time>2011-04-09T14:55:19Z</time>
      </trkpt>
      <trkpt lat="45.4593" lon="5.47934">
        <ele>709.10961914062</ele>
        <time>2011-04-09T14:55:30Z</time>
      </trkpt>
      <trkpt lat="45.45949" lon="5.47944">
        <ele>708.1484375</ele>
        <time>2011-04-09T14:55:47Z</time>
      </trkpt>
      <trkpt lat="45.45975" lon="5.47956">
        <ele>707.66772460938</ele>
        <time>2011-04-09T14:56:06Z</time>
      </trkpt>
      <trkpt lat="45.45995" lon="5.47965">
        <ele>707.66772460938</ele>
        <time>2011-04-09T14:56:24Z</time>
      </trkpt>
      <trkpt lat="45.46019" lon="5.47975">
        <ele>707.18701171875</ele>
        <time>2011-04-09T14:56:39Z</time>
      </trkpt>
      <trkpt lat="45.46039" lon="5.47976">
        <ele>706.70629882812</ele>
        <time>2011-04-09T14:56:57Z</time>
      </trkpt>
      <trkpt lat="45.46061" lon="5.47974">
        <ele>706.2255859375</ele>
        <time>2011-04-09T14:57:15Z</time>
      </trkpt>
      <trkpt lat="45.46081" lon="5.47976">
        <ele>704.30322265625</ele>
        <time>2011-04-09T14:57:32Z</time>
      </trkpt>
      <trkpt lat="45.46098" lon="5.47987">
        <ele>702.38037109375</ele>
        <time>2011-04-09T14:57:48Z</time>
      </trkpt>
      <trkpt lat="45.46111" lon="5.47994">
        <ele>700.4580078125</ele>
        <time>2011-04-09T14:58:05Z</time>
      </trkpt>
      <trkpt lat="45.46131" lon="5.47996">
        <ele>698.05444335938</ele>
        <time>2011-04-09T14:58:24Z</time>
      </trkpt>
      <trkpt lat="45.46147" lon="5.48009">
        <ele>695.17041015625</ele>
        <time>2011-04-09T14:58:42Z</time>
      </trkpt>
      <trkpt lat="45.46167" lon="5.48017">
        <ele>693.24780273438</ele>
        <time>2011-04-09T14:59:00Z</time>
      </trkpt>
      <trkpt lat="45.4618" lon="5.4803">
        <ele>691.3251953125</ele>
        <time>2011-04-09T14:59:15Z</time>
      </trkpt>
      <trkpt lat="45.46195" lon="5.48051">
        <ele>688.92211914062</ele>
        <time>2011-04-09T14:59:34Z</time>
      </trkpt>
      <trkpt lat="45.46213" lon="5.48073">
        <ele>686.51879882812</ele>
        <time>2011-04-09T14:59:55Z</time>
      </trkpt>
      <trkpt lat="45.46226" lon="5.48086">
        <ele>685.07690429688</ele>
        <time>2011-04-09T15:00:11Z</time>
      </trkpt>
      <trkpt lat="45.46242" lon="5.48109">
        <ele>683.63452148438</ele>
        <time>2011-04-09T15:00:32Z</time>
      </trkpt>
      <trkpt lat="45.46255" lon="5.48129">
        <ele>681.7119140625</ele>
        <time>2011-04-09T15:00:49Z</time>
      </trkpt>
      <trkpt lat="45.46267" lon="5.48147">
        <ele>679.78930664062</ele>
        <time>2011-04-09T15:01:06Z</time>
      </trkpt>
      <trkpt lat="45.46278" lon="5.48157">
        <ele>679.30859375</ele>
        <time>2011-04-09T15:01:15Z</time>
      </trkpt>
      <trkpt lat="45.46286" lon="5.48162">
        <ele>678.34741210938</ele>
        <time>2011-04-09T15:01:23Z</time>
      </trkpt>
      <trkpt lat="45.46301" lon="5.48171">
        <ele>676.90551757812</ele>
        <time>2011-04-09T15:01:40Z</time>
      </trkpt>
      <trkpt lat="45.4633" lon="5.48177">
        <ele>675.94409179688</ele>
        <time>2011-04-09T15:02:00Z</time>
      </trkpt>
      <trkpt lat="45.46349" lon="5.48183">
        <ele>675.94409179688</ele>
        <time>2011-04-09T15:02:15Z</time>
      </trkpt>
      <trkpt lat="45.46367" lon="5.48186">
        <ele>675.46337890625</ele>
        <time>2011-04-09T15:02:31Z</time>
      </trkpt>
      <trkpt lat="45.46383" lon="5.48189">
        <ele>675.46337890625</ele>
        <time>2011-04-09T15:02:41Z</time>
      </trkpt>
      <trkpt lat="45.464" lon="5.48193">
        <ele>675.94409179688</ele>
        <time>2011-04-09T15:02:55Z</time>
      </trkpt>
      <trkpt lat="45.46417" lon="5.48196">
        <ele>674.021484375</ele>
        <time>2011-04-09T15:03:11Z</time>
      </trkpt>
      <trkpt lat="45.46431" lon="5.48197">
        <ele>672.57958984375</ele>
        <time>2011-04-09T15:03:24Z</time>
      </trkpt>
      <trkpt lat="45.46447" lon="5.48196">
        <ele>670.65698242188</ele>
        <time>2011-04-09T15:03:39Z</time>
      </trkpt>
      <trkpt lat="45.46465" lon="5.48205">
        <ele>668.734375</ele>
        <time>2011-04-09T15:03:55Z</time>
      </trkpt>
      <trkpt lat="45.46479" lon="5.48215">
        <ele>667.29223632812</ele>
        <time>2011-04-09T15:04:09Z</time>
      </trkpt>
      <trkpt lat="45.46494" lon="5.48235">
        <ele>664.88891601562</ele>
        <time>2011-04-09T15:04:30Z</time>
      </trkpt>
      <trkpt lat="45.46512" lon="5.4825">
        <ele>662.00512695312</ele>
        <time>2011-04-09T15:04:49Z</time>
      </trkpt>
      <trkpt lat="45.46533" lon="5.48266">
        <ele>659.12109375</ele>
        <time>2011-04-09T15:05:08Z</time>
      </trkpt>
      <trkpt lat="45.46556" lon="5.48282">
        <ele>656.7177734375</ele>
        <time>2011-04-09T15:05:27Z</time>
      </trkpt>
      <trkpt lat="45.46565" lon="5.4829">
        <ele>654.79516601562</ele>
        <time>2011-04-09T15:05:40Z</time>
      </trkpt>
      <trkpt lat="45.4657" lon="5.48297">
        <ele>653.833984375</ele>
        <time>2011-04-09T15:05:45Z</time>
      </trkpt>
      <trkpt lat="45.46574" lon="5.48303">
        <ele>653.35327148438</ele>
        <time>2011-04-09T15:05:50Z</time>
      </trkpt>
      <trkpt lat="45.46577" lon="5.48307">
        <ele>652.87255859375</ele>
        <time>2011-04-09T15:05:54Z</time>
      </trkpt>
      <trkpt lat="45.46585" lon="5.48315">
        <ele>651.9111328125</ele>
        <time>2011-04-09T15:06:05Z</time>
      </trkpt>
      <trkpt lat="45.46597" lon="5.48322">
        <ele>650.94970703125</ele>
        <time>2011-04-09T15:06:17Z</time>
      </trkpt>
      <trkpt lat="45.46604" lon="5.48329">
        <ele>650.46923828125</ele>
        <time>2011-04-09T15:06:30Z</time>
      </trkpt>
      <trkpt lat="45.46621" lon="5.48335">
        <ele>649.98852539062</ele>
        <time>2011-04-09T15:06:44Z</time>
      </trkpt>
      <trkpt lat="45.46638" lon="5.48342">
        <ele>649.5078125</ele>
        <time>2011-04-09T15:06:57Z</time>
      </trkpt>
      <trkpt lat="45.46654" lon="5.48344">
        <ele>649.02709960938</ele>
        <time>2011-04-09T15:07:09Z</time>
      </trkpt>
      <trkpt lat="45.46674" lon="5.48347">
        <ele>649.5078125</ele>
        <time>2011-04-09T15:07:23Z</time>
      </trkpt>
      <trkpt lat="45.46687" lon="5.48351">
        <ele>649.5078125</ele>
        <time>2011-04-09T15:07:35Z</time>
      </trkpt>
      <trkpt lat="45.46695" lon="5.48353">
        <ele>649.02709960938</ele>
        <time>2011-04-09T15:07:46Z</time>
      </trkpt>
      <trkpt lat="45.46698" lon="5.48358">
        <ele>649.02709960938</ele>
        <time>2011-04-09T15:08:17Z</time>
      </trkpt>
      <trkpt lat="45.46696" lon="5.48362">
        <ele>648.54638671875</ele>
        <time>2011-04-09T15:10:04Z</time>
      </trkpt>
      <trkpt lat="45.46694" lon="5.48367">
        <ele>648.54638671875</ele>
        <time>2011-04-09T15:10:10Z</time>
      </trkpt>
      <trkpt lat="45.46686" lon="5.48379">
        <ele>649.02709960938</ele>
        <time>2011-04-09T15:10:24Z</time>
      </trkpt>
      <trkpt lat="45.46682" lon="5.4839">
        <ele>649.98852539062</ele>
        <time>2011-04-09T15:10:35Z</time>
      </trkpt>
      <trkpt lat="45.46681" lon="5.48392">
        <ele>649.98852539062</ele>
        <time>2011-04-09T15:10:37Z</time>
      </trkpt>
      <trkpt lat="45.46674" lon="5.48407">
        <ele>650.94970703125</ele>
        <time>2011-04-09T15:10:50Z</time>
      </trkpt>
      <trkpt lat="45.4667" lon="5.48419">
        <ele>651.9111328125</ele>
        <time>2011-04-09T15:11:03Z</time>
      </trkpt>
      <trkpt lat="45.46666" lon="5.48431">
        <ele>652.87255859375</ele>
        <time>2011-04-09T15:11:16Z</time>
      </trkpt>
      <trkpt lat="45.46657" lon="5.48442">
        <ele>654.31469726562</ele>
        <time>2011-04-09T15:11:29Z</time>
      </trkpt>
      <trkpt lat="45.46649" lon="5.48454">
        <ele>655.75659179688</ele>
        <time>2011-04-09T15:11:41Z</time>
      </trkpt>
      <trkpt lat="45.46643" lon="5.48468">
        <ele>657.67919921875</ele>
        <time>2011-04-09T15:11:55Z</time>
      </trkpt>
      <trkpt lat="45.46637" lon="5.48475">
        <ele>659.12109375</ele>
        <time>2011-04-09T15:12:07Z</time>
      </trkpt>
      <trkpt lat="45.4663" lon="5.48483">
        <ele>660.56298828125</ele>
        <time>2011-04-09T15:12:19Z</time>
      </trkpt>
      <trkpt lat="45.46625" lon="5.48498">
        <ele>662.48559570312</ele>
        <time>2011-04-09T15:12:32Z</time>
      </trkpt>
      <trkpt lat="45.4662" lon="5.48513">
        <ele>664.408203125</ele>
        <time>2011-04-09T15:12:46Z</time>
      </trkpt>
      <trkpt lat="45.46613" lon="5.48524">
        <ele>666.8115234375</ele>
        <time>2011-04-09T15:13:00Z</time>
      </trkpt>
      <trkpt lat="45.46602" lon="5.48541">
        <ele>668.734375</ele>
        <time>2011-04-09T15:13:17Z</time>
      </trkpt>
      <trkpt lat="45.46593" lon="5.48547">
        <ele>671.1376953125</ele>
        <time>2011-04-09T15:13:33Z</time>
      </trkpt>
      <trkpt lat="45.46587" lon="5.48551">
        <ele>672.09887695312</ele>
        <time>2011-04-09T15:13:42Z</time>
      </trkpt>
      <trkpt lat="45.46575" lon="5.48558">
        <ele>673.541015625</ele>
        <time>2011-04-09T15:13:56Z</time>
      </trkpt>
      <trkpt lat="45.46564" lon="5.4856">
        <ele>674.98291015625</ele>
        <time>2011-04-09T15:14:10Z</time>
      </trkpt>
      <trkpt lat="45.4655" lon="5.48562">
        <ele>675.94409179688</ele>
        <time>2011-04-09T15:14:25Z</time>
      </trkpt>
      <trkpt lat="45.46547" lon="5.48561">
        <ele>675.94409179688</ele>
        <time>2011-04-09T15:14:29Z</time>
      </trkpt>
      <trkpt lat="45.46531" lon="5.48562">
        <ele>676.4248046875</ele>
        <time>2011-04-09T15:14:47Z</time>
      </trkpt>
      <trkpt lat="45.46526" lon="5.48562">
        <ele>676.4248046875</ele>
        <time>2011-04-09T15:14:58Z</time>
      </trkpt>
      <trkpt lat="45.46502" lon="5.48558">
        <ele>676.90551757812</ele>
        <time>2011-04-09T15:15:21Z</time>
      </trkpt>
      <trkpt lat="45.46488" lon="5.48559">
        <ele>677.38623046875</ele>
        <time>2011-04-09T15:15:36Z</time>
      </trkpt>
      <trkpt lat="45.46472" lon="5.48561">
        <ele>678.34741210938</ele>
        <time>2011-04-09T15:15:51Z</time>
      </trkpt>
      <trkpt lat="45.4646" lon="5.48567">
        <ele>679.30859375</ele>
        <time>2011-04-09T15:16:03Z</time>
      </trkpt>
      <trkpt lat="45.46447" lon="5.48584">
        <ele>680.27001953125</ele>
        <time>2011-04-09T15:16:17Z</time>
      </trkpt>
      <trkpt lat="45.46437" lon="5.48599">
        <ele>681.2314453125</ele>
        <time>2011-04-09T15:16:28Z</time>
      </trkpt>
      <trkpt lat="45.46434" lon="5.48611">
        <ele>681.7119140625</ele>
        <time>2011-04-09T15:16:40Z</time>
      </trkpt>
      <trkpt lat="45.46422" lon="5.48631">
        <ele>681.2314453125</ele>
        <time>2011-04-09T15:16:57Z</time>
      </trkpt>
      <trkpt lat="45.46413" lon="5.48644">
        <ele>680.75073242188</ele>
        <time>2011-04-09T15:17:09Z</time>
      </trkpt>
      <trkpt lat="45.46405" lon="5.48661">
        <ele>679.78930664062</ele>
        <time>2011-04-09T15:17:23Z</time>
      </trkpt>
      <trkpt lat="45.46397" lon="5.48687">
        <ele>677.86669921875</ele>
        <time>2011-04-09T15:17:44Z</time>
      </trkpt>
      <trkpt lat="45.46393" lon="5.48705">
        <ele>676.90551757812</ele>
        <time>2011-04-09T15:18:01Z</time>
      </trkpt>
      <trkpt lat="45.4639" lon="5.48728">
        <ele>675.46337890625</ele>
        <time>2011-04-09T15:18:18Z</time>
      </trkpt>
      <trkpt lat="45.46387" lon="5.48749">
        <ele>674.021484375</ele>
        <time>2011-04-09T15:18:37Z</time>
      </trkpt>
      <trkpt lat="45.46382" lon="5.48769">
        <ele>673.541015625</ele>
        <time>2011-04-09T15:18:54Z</time>
      </trkpt>
      <trkpt lat="45.4637" lon="5.48793">
        <ele>672.09887695312</ele>
        <time>2011-04-09T15:19:10Z</time>
      </trkpt>
      <trkpt lat="45.46364" lon="5.48822">
        <ele>670.65698242188</ele>
        <time>2011-04-09T15:19:30Z</time>
      </trkpt>
      <trkpt lat="45.46357" lon="5.48853">
        <ele>667.77270507812</ele>
        <time>2011-04-09T15:19:53Z</time>
      </trkpt>
      <trkpt lat="45.4635" lon="5.48881">
        <ele>664.408203125</ele>
        <time>2011-04-09T15:20:10Z</time>
      </trkpt>
      <trkpt lat="45.46343" lon="5.48901">
        <ele>662.96630859375</ele>
        <time>2011-04-09T15:20:26Z</time>
      </trkpt>
      <trkpt lat="45.46342" lon="5.48933">
        <ele>659.60180664062</ele>
        <time>2011-04-09T15:20:46Z</time>
      </trkpt>
      <trkpt lat="45.46337" lon="5.48962">
        <ele>657.67919921875</ele>
        <time>2011-04-09T15:21:04Z</time>
      </trkpt>
      <trkpt lat="45.46334" lon="5.48975">
        <ele>657.19848632812</ele>
        <time>2011-04-09T15:21:11Z</time>
      </trkpt>
      <trkpt lat="45.46329" lon="5.4899">
        <ele>656.23706054688</ele>
        <time>2011-04-09T15:21:19Z</time>
      </trkpt>
      <trkpt lat="45.46322" lon="5.49013">
        <ele>654.79516601562</ele>
        <time>2011-04-09T15:21:34Z</time>
      </trkpt>
      <trkpt lat="45.46313" lon="5.49027">
        <ele>653.833984375</ele>
        <time>2011-04-09T15:21:48Z</time>
      </trkpt>
      <trkpt lat="45.46307" lon="5.49038">
        <ele>652.39184570312</ele>
        <time>2011-04-09T15:22:00Z</time>
      </trkpt>
      <trkpt lat="45.463" lon="5.49053">
        <ele>649.5078125</ele>
        <time>2011-04-09T15:22:25Z</time>
      </trkpt>
      <trkpt lat="45.46294" lon="5.49077">
        <ele>647.1044921875</ele>
        <time>2011-04-09T15:22:45Z</time>
      </trkpt>
      <trkpt lat="45.46287" lon="5.49085">
        <ele>646.6240234375</ele>
        <time>2011-04-09T15:22:50Z</time>
      </trkpt>
      <trkpt lat="45.46277" lon="5.49112">
        <ele>644.701171875</ele>
        <time>2011-04-09T15:23:10Z</time>
      </trkpt>
      <trkpt lat="45.46265" lon="5.49137">
        <ele>642.77880859375</ele>
        <time>2011-04-09T15:23:26Z</time>
      </trkpt>
      <trkpt lat="45.46252" lon="5.49161">
        <ele>640.85595703125</ele>
        <time>2011-04-09T15:23:42Z</time>
      </trkpt>
      <trkpt lat="45.46247" lon="5.49177">
        <ele>639.89477539062</ele>
        <time>2011-04-09T15:23:54Z</time>
      </trkpt>
      <trkpt lat="45.46231" lon="5.49206">
        <ele>637.97216796875</ele>
        <time>2011-04-09T15:24:11Z</time>
      </trkpt>
      <trkpt lat="45.46225" lon="5.49217">
        <ele>637.49145507812</ele>
        <time>2011-04-09T15:24:22Z</time>
      </trkpt>
      <trkpt lat="45.46222" lon="5.49236">
        <ele>636.5302734375</ele>
        <time>2011-04-09T15:24:35Z</time>
      </trkpt>
      <trkpt lat="45.46221" lon="5.49245">
        <ele>636.04956054688</ele>
        <time>2011-04-09T15:24:40Z</time>
      </trkpt>
      <trkpt lat="45.46209" lon="5.49277">
        <ele>634.607421875</ele>
        <time>2011-04-09T15:24:55Z</time>
      </trkpt>
      <trkpt lat="45.46201" lon="5.49297">
        <ele>633.16528320312</ele>
        <time>2011-04-09T15:25:10Z</time>
      </trkpt>
      <trkpt lat="45.46194" lon="5.49314">
        <ele>631.72338867188</ele>
        <time>2011-04-09T15:25:21Z</time>
      </trkpt>
      <trkpt lat="45.46191" lon="5.49331">
        <ele>630.28149414062</ele>
        <time>2011-04-09T15:25:35Z</time>
      </trkpt>
      <trkpt lat="45.46189" lon="5.49344">
        <ele>629.32006835938</ele>
        <time>2011-04-09T15:25:47Z</time>
      </trkpt>
      <trkpt lat="45.46184" lon="5.49356">
        <ele>627.87817382812</ele>
        <time>2011-04-09T15:26:00Z</time>
      </trkpt>
      <trkpt lat="45.46179" lon="5.49375">
        <ele>626.43627929688</ele>
        <time>2011-04-09T15:26:12Z</time>
      </trkpt>
      <trkpt lat="45.46177" lon="5.49392">
        <ele>624.99438476562</ele>
        <time>2011-04-09T15:26:25Z</time>
      </trkpt>
      <trkpt lat="45.46176" lon="5.49413">
        <ele>623.55249023438</ele>
        <time>2011-04-09T15:26:40Z</time>
      </trkpt>
      <trkpt lat="45.46173" lon="5.49434">
        <ele>622.59106445312</ele>
        <time>2011-04-09T15:26:57Z</time>
      </trkpt>
      <trkpt lat="45.46169" lon="5.4944">
        <ele>622.1103515625</ele>
        <time>2011-04-09T15:27:03Z</time>
      </trkpt>
      <trkpt lat="45.46156" lon="5.49447">
        <ele>621.14916992188</ele>
        <time>2011-04-09T15:27:17Z</time>
      </trkpt>
      <trkpt lat="45.46153" lon="5.49449">
        <ele>621.14916992188</ele>
        <time>2011-04-09T15:27:21Z</time>
      </trkpt>
      <trkpt lat="45.46138" lon="5.49459">
        <ele>620.18774414062</ele>
        <time>2011-04-09T15:27:33Z</time>
      </trkpt>
      <trkpt lat="45.4612" lon="5.49467">
        <ele>619.70703125</ele>
        <time>2011-04-09T15:27:49Z</time>
      </trkpt>
      <trkpt lat="45.4611" lon="5.49476">
        <ele>618.74560546875</ele>
        <time>2011-04-09T15:28:03Z</time>
      </trkpt>
      <trkpt lat="45.461" lon="5.49483">
        <ele>617.3037109375</ele>
        <time>2011-04-09T15:28:17Z</time>
      </trkpt>
      <trkpt lat="45.46089" lon="5.49488">
        <ele>616.34228515625</ele>
        <time>2011-04-09T15:28:30Z</time>
      </trkpt>
      <trkpt lat="45.46073" lon="5.49494">
        <ele>615.86181640625</ele>
        <time>2011-04-09T15:28:43Z</time>
      </trkpt>
      <trkpt lat="45.46061" lon="5.49511">
        <ele>613.93896484375</ele>
        <time>2011-04-09T15:28:58Z</time>
      </trkpt>
      <trkpt lat="45.46053" lon="5.4952">
        <ele>613.45849609375</ele>
        <time>2011-04-09T15:29:09Z</time>
      </trkpt>
      <trkpt lat="45.46039" lon="5.49537">
        <ele>612.0166015625</ele>
        <time>2011-04-09T15:29:26Z</time>
      </trkpt>
      <trkpt lat="45.46024" lon="5.49549">
        <ele>611.05517578125</ele>
        <time>2011-04-09T15:29:40Z</time>
      </trkpt>
      <trkpt lat="45.46009" lon="5.49564">
        <ele>610.09375</ele>
        <time>2011-04-09T15:29:55Z</time>
      </trkpt>
      <trkpt lat="45.45995" lon="5.49578">
        <ele>609.13256835938</ele>
        <time>2011-04-09T15:30:10Z</time>
      </trkpt>
      <trkpt lat="45.45978" lon="5.49586">
        <ele>608.17138671875</ele>
        <time>2011-04-09T15:30:25Z</time>
      </trkpt>
      <trkpt lat="45.45961" lon="5.49601">
        <ele>606.72924804688</ele>
        <time>2011-04-09T15:30:44Z</time>
      </trkpt>
      <trkpt lat="45.45942" lon="5.49607">
        <ele>606.24853515625</ele>
        <time>2011-04-09T15:31:00Z</time>
      </trkpt>
      <trkpt lat="45.45921" lon="5.4961">
        <ele>605.28735351562</ele>
        <time>2011-04-09T15:31:20Z</time>
      </trkpt>
      <trkpt lat="45.45895" lon="5.49611">
        <ele>603.36450195312</ele>
        <time>2011-04-09T15:31:43Z</time>
      </trkpt>
      <trkpt lat="45.45863" lon="5.49613">
        <ele>601.92260742188</ele>
        <time>2011-04-09T15:32:11Z</time>
      </trkpt>
      <trkpt lat="45.45833" lon="5.49616">
        <ele>600.48071289062</ele>
        <time>2011-04-09T15:32:36Z</time>
      </trkpt>
      <trkpt lat="45.45813" lon="5.49624">
        <ele>599.03857421875</ele>
        <time>2011-04-09T15:32:54Z</time>
      </trkpt>
      <trkpt lat="45.45796" lon="5.49636">
        <ele>596.63549804688</ele>
        <time>2011-04-09T15:33:11Z</time>
      </trkpt>
      <trkpt lat="45.45791" lon="5.49642">
        <ele>589.90625</ele>
        <time>2011-04-09T15:33:18Z</time>
      </trkpt>
      <trkpt lat="45.45791" lon="5.49642">
        <ele>596.63549804688</ele>
        <time>2011-04-09T15:33:19Z</time>
      </trkpt>
      <trkpt lat="45.45782" lon="5.4965">
        <ele>594.23217773438</ele>
        <time>2011-04-09T15:33:30Z</time>
      </trkpt>
      <trkpt lat="45.45758" lon="5.49656">
        <ele>590.86743164062</ele>
        <time>2011-04-09T15:33:51Z</time>
      </trkpt>
      <trkpt lat="45.45734" lon="5.49655">
        <ele>588.46435546875</ele>
        <time>2011-04-09T15:34:12Z</time>
      </trkpt>
      <trkpt lat="45.45716" lon="5.49662">
        <ele>586.54150390625</ele>
        <time>2011-04-09T15:34:26Z</time>
      </trkpt>
      <trkpt lat="45.45705" lon="5.4966">
        <ele>584.61889648438</ele>
        <time>2011-04-09T15:34:39Z</time>
      </trkpt>
      <trkpt lat="45.45677" lon="5.49657">
        <ele>581.73486328125</ele>
        <time>2011-04-09T15:35:02Z</time>
      </trkpt>
      <trkpt lat="45.45657" lon="5.49655">
        <ele>579.81225585938</ele>
        <time>2011-04-09T15:35:19Z</time>
      </trkpt>
      <trkpt lat="45.45635" lon="5.49657">
        <ele>577.4091796875</ele>
        <time>2011-04-09T15:35:38Z</time>
      </trkpt>
      <trkpt lat="45.45617" lon="5.49667">
        <ele>575.486328125</ele>
        <time>2011-04-09T15:35:55Z</time>
      </trkpt>
      <trkpt lat="45.45594" lon="5.49675">
        <ele>574.04443359375</ele>
        <time>2011-04-09T15:36:13Z</time>
      </trkpt>
      <trkpt lat="45.45576" lon="5.49681">
        <ele>572.12182617188</ele>
        <time>2011-04-09T15:36:29Z</time>
      </trkpt>
      <trkpt lat="45.4555" lon="5.49691">
        <ele>570.19897460938</ele>
        <time>2011-04-09T15:36:53Z</time>
      </trkpt>
      <trkpt lat="45.4554" lon="5.49719">
        <ele>568.2763671875</ele>
        <time>2011-04-09T15:37:08Z</time>
      </trkpt>
      <trkpt lat="45.4553" lon="5.49751">
        <ele>565.87329101562</ele>
        <time>2011-04-09T15:37:26Z</time>
      </trkpt>
      <trkpt lat="45.45513" lon="5.49763">
        <ele>563.95043945312</ele>
        <time>2011-04-09T15:37:43Z</time>
      </trkpt>
      <trkpt lat="45.45505" lon="5.49769">
        <ele>562.9892578125</ele>
        <time>2011-04-09T15:37:51Z</time>
      </trkpt>
      <trkpt lat="45.45502" lon="5.4977">
        <ele>562.9892578125</ele>
        <time>2011-04-09T15:37:53Z</time>
      </trkpt>
      <trkpt lat="45.45483" lon="5.49783">
        <ele>560.5859375</ele>
        <time>2011-04-09T15:38:13Z</time>
      </trkpt>
      <trkpt lat="45.45474" lon="5.49796">
        <ele>559.14404296875</ele>
        <time>2011-04-09T15:38:26Z</time>
      </trkpt>
      <trkpt lat="45.45469" lon="5.498">
        <ele>559.14404296875</ele>
        <time>2011-04-09T15:38:30Z</time>
      </trkpt>
      <trkpt lat="45.45455" lon="5.49817">
        <ele>557.7021484375</ele>
        <time>2011-04-09T15:38:46Z</time>
      </trkpt>
      <trkpt lat="45.45439" lon="5.49829">
        <ele>556.26000976562</ele>
        <time>2011-04-09T15:39:02Z</time>
      </trkpt>
      <trkpt lat="45.45427" lon="5.49835">
        <ele>555.29858398438</ele>
        <time>2011-04-09T15:39:14Z</time>
      </trkpt>
      <trkpt lat="45.45414" lon="5.49847">
        <ele>554.33740234375</ele>
        <time>2011-04-09T15:39:26Z</time>
      </trkpt>
      <trkpt lat="45.454" lon="5.49854">
        <ele>553.3759765625</ele>
        <time>2011-04-09T15:39:40Z</time>
      </trkpt>
      <trkpt lat="45.45383" lon="5.49853">
        <ele>552.41455078125</ele>
        <time>2011-04-09T15:39:55Z</time>
      </trkpt>
      <trkpt lat="45.4537" lon="5.49851">
        <ele>551.45336914062</ele>
        <time>2011-04-09T15:40:05Z</time>
      </trkpt>
      <trkpt lat="45.45357" lon="5.49847">
        <ele>550.4921875</ele>
        <time>2011-04-09T15:40:16Z</time>
      </trkpt>
      <trkpt lat="45.45346" lon="5.49849">
        <ele>549.53076171875</ele>
        <time>2011-04-09T15:40:29Z</time>
      </trkpt>
      <trkpt lat="45.45342" lon="5.49848">
        <ele>549.05004882812</ele>
        <time>2011-04-09T15:40:32Z</time>
      </trkpt>
      <trkpt lat="45.45329" lon="5.49855">
        <ele>548.5693359375</ele>
        <time>2011-04-09T15:40:44Z</time>
      </trkpt>
      <trkpt lat="45.45313" lon="5.49861">
        <ele>547.12744140625</ele>
        <time>2011-04-09T15:40:59Z</time>
      </trkpt>
      <trkpt lat="45.45307" lon="5.49864">
        <ele>546.16625976562</ele>
        <time>2011-04-09T15:41:09Z</time>
      </trkpt>
      <trkpt lat="45.45305" lon="5.49853">
        <ele>546.16625976562</ele>
        <time>2011-04-09T15:41:15Z</time>
      </trkpt>
      <trkpt lat="45.45299" lon="5.49831">
        <ele>545.685546875</ele>
        <time>2011-04-09T15:41:30Z</time>
      </trkpt>
      <trkpt lat="45.4529" lon="5.49797">
        <ele>545.20483398438</ele>
        <time>2011-04-09T15:41:48Z</time>
      </trkpt>
      <trkpt lat="45.45287" lon="5.49777">
        <ele>544.72424316406</ele>
        <time>2011-04-09T15:42:01Z</time>
      </trkpt>
      <trkpt lat="45.45277" lon="5.49755">
        <ele>545.685546875</ele>
        <time>2011-04-09T15:42:15Z</time>
      </trkpt>
      <trkpt lat="45.45273" lon="5.49739">
        <ele>545.685546875</ele>
        <time>2011-04-09T15:42:26Z</time>
      </trkpt>
      <trkpt lat="45.45269" lon="5.49733">
        <ele>545.685546875</ele>
        <time>2011-04-09T15:42:31Z</time>
      </trkpt>
      <trkpt lat="45.4526" lon="5.49718">
        <ele>545.20483398438</ele>
        <time>2011-04-09T15:42:43Z</time>
      </trkpt>
      <trkpt lat="45.45248" lon="5.497">
        <ele>544.72424316406</ele>
        <time>2011-04-09T15:42:57Z</time>
      </trkpt>
      <trkpt lat="45.45239" lon="5.4968">
        <ele>544.72424316406</ele>
        <time>2011-04-09T15:43:11Z</time>
      </trkpt>
      <trkpt lat="45.45227" lon="5.49662">
        <ele>544.72424316406</ele>
        <time>2011-04-09T15:43:25Z</time>
      </trkpt>
      <trkpt lat="45.45211" lon="5.49646">
        <ele>544.24365234375</ele>
        <time>2011-04-09T15:43:41Z</time>
      </trkpt>
      <trkpt lat="45.45205" lon="5.49638">
        <ele>544.72424316406</ele>
        <time>2011-04-09T15:43:51Z</time>
      </trkpt>
      <trkpt lat="45.45204" lon="5.49638">
        <ele>544.24365234375</ele>
        <time>2011-04-09T15:43:52Z</time>
      </trkpt>
      <trkpt lat="45.452" lon="5.49634">
        <ele>544.24365234375</ele>
        <time>2011-04-09T15:43:57Z</time>
      </trkpt>
      <trkpt lat="45.45194" lon="5.49627">
        <ele>544.24365234375</ele>
        <time>2011-04-09T15:44:03Z</time>
      </trkpt>
      <trkpt lat="45.45179" lon="5.49615">
        <ele>543.76281738281</ele>
        <time>2011-04-09T15:44:17Z</time>
      </trkpt>
      <trkpt lat="45.45174" lon="5.49614">
        <ele>544.24365234375</ele>
        <time>2011-04-09T15:44:21Z</time>
      </trkpt>
      <trkpt lat="45.45163" lon="5.49601">
        <ele>544.24365234375</ele>
        <time>2011-04-09T15:44:34Z</time>
      </trkpt>
      <trkpt lat="45.45151" lon="5.4959">
        <ele>545.20483398438</ele>
        <time>2011-04-09T15:44:45Z</time>
      </trkpt>
      <trkpt lat="45.45146" lon="5.49578">
        <ele>545.20483398438</ele>
        <time>2011-04-09T15:44:57Z</time>
      </trkpt>
      <trkpt lat="45.45147" lon="5.49562">
        <ele>546.16625976562</ele>
        <time>2011-04-09T15:45:09Z</time>
      </trkpt>
      <trkpt lat="45.45145" lon="5.4954">
        <ele>548.0888671875</ele>
        <time>2011-04-09T15:45:29Z</time>
      </trkpt>
      <trkpt lat="45.45137" lon="5.4952">
        <ele>550.01147460938</ele>
        <time>2011-04-09T15:45:45Z</time>
      </trkpt>
      <trkpt lat="45.45133" lon="5.49502">
        <ele>551.93408203125</ele>
        <time>2011-04-09T15:45:59Z</time>
      </trkpt>
      <trkpt lat="45.45134" lon="5.49482">
        <ele>553.3759765625</ele>
        <time>2011-04-09T15:46:13Z</time>
      </trkpt>
      <trkpt lat="45.45121" lon="5.49464">
        <ele>555.779296875</ele>
        <time>2011-04-09T15:46:30Z</time>
      </trkpt>
      <trkpt lat="45.45105" lon="5.49451">
        <ele>557.22143554688</ele>
        <time>2011-04-09T15:46:43Z</time>
      </trkpt>
      <trkpt lat="45.45097" lon="5.49442">
        <ele>558.18286132812</ele>
        <time>2011-04-09T15:46:53Z</time>
      </trkpt>
      <trkpt lat="45.45085" lon="5.49429">
        <ele>560.10522460938</ele>
        <time>2011-04-09T15:47:09Z</time>
      </trkpt>
      <trkpt lat="45.45075" lon="5.49416">
        <ele>561.54736328125</ele>
        <time>2011-04-09T15:47:23Z</time>
      </trkpt>
      <trkpt lat="45.45066" lon="5.49408">
        <ele>562.02807617188</ele>
        <time>2011-04-09T15:47:33Z</time>
      </trkpt>
      <trkpt lat="45.4506" lon="5.494">
        <ele>562.9892578125</ele>
        <time>2011-04-09T15:47:42Z</time>
      </trkpt>
      <trkpt lat="45.4506" lon="5.49399">
        <ele>563.46997070312</ele>
        <time>2011-04-09T15:47:43Z</time>
      </trkpt>
      <trkpt lat="45.4505" lon="5.49385">
        <ele>564.43115234375</ele>
        <time>2011-04-09T15:47:57Z</time>
      </trkpt>
      <trkpt lat="45.4504" lon="5.49376">
        <ele>565.87329101562</ele>
        <time>2011-04-09T15:48:09Z</time>
      </trkpt>
      <trkpt lat="45.4503" lon="5.49366">
        <ele>567.31518554688</ele>
        <time>2011-04-09T15:48:21Z</time>
      </trkpt>
      <trkpt lat="45.4502" lon="5.4936">
        <ele>568.75708007812</ele>
        <time>2011-04-09T15:48:34Z</time>
      </trkpt>
      <trkpt lat="45.45011" lon="5.49354">
        <ele>569.71850585938</ele>
        <time>2011-04-09T15:48:45Z</time>
      </trkpt>
      <trkpt lat="45.44998" lon="5.49342">
        <ele>572.12182617188</ele>
        <time>2011-04-09T15:49:00Z</time>
      </trkpt>
      <trkpt lat="45.44993" lon="5.49333">
        <ele>573.08325195312</ele>
        <time>2011-04-09T15:49:09Z</time>
      </trkpt>
      <trkpt lat="45.44986" lon="5.4932">
        <ele>574.52514648438</ele>
        <time>2011-04-09T15:49:20Z</time>
      </trkpt>
      <trkpt lat="45.44982" lon="5.49307">
        <ele>576.44775390625</ele>
        <time>2011-04-09T15:49:34Z</time>
      </trkpt>
      <trkpt lat="45.44976" lon="5.49293">
        <ele>578.37036132812</ele>
        <time>2011-04-09T15:49:49Z</time>
      </trkpt>
      <trkpt lat="45.4497" lon="5.4928">
        <ele>579.81225585938</ele>
        <time>2011-04-09T15:50:01Z</time>
      </trkpt>
      <trkpt lat="45.44963" lon="5.49269">
        <ele>581.25439453125</ele>
        <time>2011-04-09T15:50:13Z</time>
      </trkpt>
      <trkpt lat="45.44959" lon="5.49266">
        <ele>581.73486328125</ele>
        <time>2011-04-09T15:50:18Z</time>
      </trkpt>
      <trkpt lat="45.44951" lon="5.49254">
        <ele>583.1767578125</ele>
        <time>2011-04-09T15:50:33Z</time>
      </trkpt>
      <trkpt lat="45.44943" lon="5.49244">
        <ele>585.099609375</ele>
        <time>2011-04-09T15:50:46Z</time>
      </trkpt>
      <trkpt lat="45.44937" lon="5.49232">
        <ele>586.06079101562</ele>
        <time>2011-04-09T15:50:59Z</time>
      </trkpt>
      <trkpt lat="45.44934" lon="5.49222">
        <ele>587.02197265625</ele>
        <time>2011-04-09T15:51:10Z</time>
      </trkpt>
      <trkpt lat="45.4493" lon="5.49207">
        <ele>587.9833984375</ele>
        <time>2011-04-09T15:51:19Z</time>
      </trkpt>
      <trkpt lat="45.44926" lon="5.49194">
        <ele>589.90625</ele>
        <time>2011-04-09T15:51:33Z</time>
      </trkpt>
      <trkpt lat="45.44923" lon="5.49179">
        <ele>591.34814453125</ele>
        <time>2011-04-09T15:51:44Z</time>
      </trkpt>
      <trkpt lat="45.4492" lon="5.49169">
        <ele>592.3095703125</ele>
        <time>2011-04-09T15:51:54Z</time>
      </trkpt>
      <trkpt lat="45.44917" lon="5.49158">
        <ele>593.27075195312</ele>
        <time>2011-04-09T15:52:02Z</time>
      </trkpt>
      <trkpt lat="45.44915" lon="5.49145">
        <ele>594.23217773438</ele>
        <time>2011-04-09T15:52:11Z</time>
      </trkpt>
      <trkpt lat="45.44915" lon="5.49131">
        <ele>596.15478515625</ele>
        <time>2011-04-09T15:52:23Z</time>
      </trkpt>
      <trkpt lat="45.44911" lon="5.49115">
        <ele>597.5966796875</ele>
        <time>2011-04-09T15:52:37Z</time>
      </trkpt>
      <trkpt lat="45.44909" lon="5.49101">
        <ele>598.55786132812</ele>
        <time>2011-04-09T15:52:47Z</time>
      </trkpt>
      <trkpt lat="45.44909" lon="5.49088">
        <ele>600</ele>
        <time>2011-04-09T15:52:58Z</time>
      </trkpt>
      <trkpt lat="45.44908" lon="5.49086">
        <ele>600</ele>
        <time>2011-04-09T15:53:00Z</time>
      </trkpt>
      <trkpt lat="45.44905" lon="5.49067">
        <ele>600</ele>
        <time>2011-04-09T15:53:12Z</time>
      </trkpt>
      <trkpt lat="45.44898" lon="5.4905">
        <ele>600.48071289062</ele>
        <time>2011-04-09T15:53:25Z</time>
      </trkpt>
      <trkpt lat="45.44894" lon="5.49031">
        <ele>601.44189453125</ele>
        <time>2011-04-09T15:53:40Z</time>
      </trkpt>
      <trkpt lat="45.44889" lon="5.49022">
        <ele>601.92260742188</ele>
        <time>2011-04-09T15:53:56Z</time>
      </trkpt>
      <trkpt lat="45.4488" lon="5.49013">
        <ele>602.8837890625</ele>
        <time>2011-04-09T15:54:14Z</time>
      </trkpt>
      <trkpt lat="45.44875" lon="5.48989">
        <ele>604.326171875</ele>
        <time>2011-04-09T15:54:29Z</time>
      </trkpt>
      <trkpt lat="45.44868" lon="5.48982">
        <ele>604.806640625</ele>
        <time>2011-04-09T15:54:45Z</time>
      </trkpt>
      <trkpt lat="45.44865" lon="5.48973">
        <ele>605.76806640625</ele>
        <time>2011-04-09T15:54:57Z</time>
      </trkpt>
      <trkpt lat="45.44854" lon="5.48951">
        <ele>605.76806640625</ele>
        <time>2011-04-09T15:55:19Z</time>
      </trkpt>
      <trkpt lat="45.44844" lon="5.48934">
        <ele>605.76806640625</ele>
        <time>2011-04-09T15:55:34Z</time>
      </trkpt>
      <trkpt lat="45.44833" lon="5.48909">
        <ele>605.76806640625</ele>
        <time>2011-04-09T15:55:50Z</time>
      </trkpt>
      <trkpt lat="45.4482" lon="5.4888">
        <ele>605.76806640625</ele>
        <time>2011-04-09T15:56:12Z</time>
      </trkpt>
      <trkpt lat="45.44828" lon="5.48884">
        <ele>605.28735351562</ele>
        <time>2011-04-09T15:56:39Z</time>
      </trkpt>
      <trkpt lat="45.44823" lon="5.4888">
        <ele>605.76806640625</ele>
        <time>2011-04-09T15:57:28Z</time>
      </trkpt>
      <trkpt lat="45.44812" lon="5.4886">
        <ele>605.28735351562</ele>
        <time>2011-04-09T15:57:56Z</time>
      </trkpt>
      <trkpt lat="45.44799" lon="5.48829">
        <ele>605.76806640625</ele>
        <time>2011-04-09T15:58:21Z</time>
      </trkpt>
      <trkpt lat="45.44784" lon="5.4881">
        <ele>605.76806640625</ele>
        <time>2011-04-09T15:58:35Z</time>
      </trkpt>
      <trkpt lat="45.44777" lon="5.48791">
        <ele>606.24853515625</ele>
        <time>2011-04-09T15:58:50Z</time>
      </trkpt>
      <trkpt lat="45.44766" lon="5.4877">
        <ele>606.72924804688</ele>
        <time>2011-04-09T15:59:11Z</time>
      </trkpt>
      <trkpt lat="45.44758" lon="5.4876">
        <ele>607.2099609375</ele>
        <time>2011-04-09T15:59:27Z</time>
      </trkpt>
      <trkpt lat="45.44742" lon="5.48721">
        <ele>609.13256835938</ele>
        <time>2011-04-09T16:00:01Z</time>
      </trkpt>
      <trkpt lat="45.44736" lon="5.48695">
        <ele>609.13256835938</ele>
        <time>2011-04-09T16:00:17Z</time>
      </trkpt>
      <trkpt lat="45.44719" lon="5.48662">
        <ele>609.13256835938</ele>
        <time>2011-04-09T16:00:41Z</time>
      </trkpt>
      <trkpt lat="45.44708" lon="5.48631">
        <ele>609.61328125</ele>
        <time>2011-04-09T16:01:01Z</time>
      </trkpt>
      <trkpt lat="45.44697" lon="5.48602">
        <ele>610.09375</ele>
        <time>2011-04-09T16:01:23Z</time>
      </trkpt>
      <trkpt lat="45.44682" lon="5.48574">
        <ele>610.57446289062</ele>
        <time>2011-04-09T16:01:41Z</time>
      </trkpt>
      <trkpt lat="45.44671" lon="5.48553">
        <ele>610.57446289062</ele>
        <time>2011-04-09T16:01:55Z</time>
      </trkpt>
      <trkpt lat="45.4466" lon="5.48535">
        <ele>610.09375</ele>
        <time>2011-04-09T16:02:09Z</time>
      </trkpt>
      <trkpt lat="45.44652" lon="5.48516">
        <ele>610.09375</ele>
        <time>2011-04-09T16:02:19Z</time>
      </trkpt>
      <trkpt lat="45.44647" lon="5.48499">
        <ele>610.57446289062</ele>
        <time>2011-04-09T16:02:32Z</time>
      </trkpt>
      <trkpt lat="45.44651" lon="5.48479">
        <ele>610.57446289062</ele>
        <time>2011-04-09T16:02:48Z</time>
      </trkpt>
      <trkpt lat="45.4465" lon="5.48449">
        <ele>611.05517578125</ele>
        <time>2011-04-09T16:03:06Z</time>
      </trkpt>
      <trkpt lat="45.44639" lon="5.48424">
        <ele>610.57446289062</ele>
        <time>2011-04-09T16:03:23Z</time>
      </trkpt>
      <trkpt lat="45.44638" lon="5.48422">
        <ele>610.57446289062</ele>
        <time>2011-04-09T16:03:25Z</time>
      </trkpt>
      <trkpt lat="45.4463" lon="5.48406">
        <ele>610.57446289062</ele>
        <time>2011-04-09T16:03:36Z</time>
      </trkpt>
      <trkpt lat="45.44621" lon="5.48404">
        <ele>610.09375</ele>
        <time>2011-04-09T16:03:44Z</time>
      </trkpt>
      <trkpt lat="45.44607" lon="5.48415">
        <ele>610.09375</ele>
        <time>2011-04-09T16:03:58Z</time>
      </trkpt>
      <trkpt lat="45.4459" lon="5.48422">
        <ele>609.13256835938</ele>
        <time>2011-04-09T16:04:17Z</time>
      </trkpt>
      <trkpt lat="45.44577" lon="5.48412">
        <ele>608.65185546875</ele>
        <time>2011-04-09T16:04:30Z</time>
      </trkpt>
      <trkpt lat="45.44567" lon="5.484">
        <ele>608.17138671875</ele>
        <time>2011-04-09T16:04:42Z</time>
      </trkpt>
      <trkpt lat="45.44564" lon="5.48396">
        <ele>608.17138671875</ele>
        <time>2011-04-09T16:04:46Z</time>
      </trkpt>
      <trkpt lat="45.44553" lon="5.48388">
        <ele>607.69067382812</ele>
        <time>2011-04-09T16:04:59Z</time>
      </trkpt>
      <trkpt lat="45.44543" lon="5.48376">
        <ele>607.2099609375</ele>
        <time>2011-04-09T16:05:12Z</time>
      </trkpt>
      <trkpt lat="45.44538" lon="5.48367">
        <ele>607.69067382812</ele>
        <time>2011-04-09T16:05:19Z</time>
      </trkpt>
      <trkpt lat="45.4453" lon="5.4836">
        <ele>607.69067382812</ele>
        <time>2011-04-09T16:05:27Z</time>
      </trkpt>
      <trkpt lat="45.44526" lon="5.48352">
        <ele>607.69067382812</ele>
        <time>2011-04-09T16:05:33Z</time>
      </trkpt>
      <trkpt lat="45.44525" lon="5.4835">
        <ele>607.69067382812</ele>
        <time>2011-04-09T16:05:35Z</time>
      </trkpt>
      <trkpt lat="45.44519" lon="5.48338">
        <ele>607.2099609375</ele>
        <time>2011-04-09T16:05:44Z</time>
      </trkpt>
      <trkpt lat="45.44518" lon="5.48333">
        <ele>607.69067382812</ele>
        <time>2011-04-09T16:05:48Z</time>
      </trkpt>
      <trkpt lat="45.44512" lon="5.48314">
        <ele>607.2099609375</ele>
        <time>2011-04-09T16:06:02Z</time>
      </trkpt>
      <trkpt lat="45.4451" lon="5.48312">
        <ele>607.69067382812</ele>
        <time>2011-04-09T16:06:04Z</time>
      </trkpt>
      <trkpt lat="45.44507" lon="5.48293">
        <ele>607.2099609375</ele>
        <time>2011-04-09T16:06:15Z</time>
      </trkpt>
      <trkpt lat="45.44505" lon="5.4829">
        <ele>607.69067382812</ele>
        <time>2011-04-09T16:06:18Z</time>
      </trkpt>
      <trkpt lat="45.44502" lon="5.48284">
        <ele>607.69067382812</ele>
        <time>2011-04-09T16:06:22Z</time>
      </trkpt>
      <trkpt lat="45.44499" lon="5.48261">
        <ele>607.69067382812</ele>
        <time>2011-04-09T16:06:36Z</time>
      </trkpt>
      <trkpt lat="45.44502" lon="5.48243">
        <ele>607.69067382812</ele>
        <time>2011-04-09T16:06:48Z</time>
      </trkpt>
      <trkpt lat="45.44501" lon="5.48239">
        <ele>607.69067382812</ele>
        <time>2011-04-09T16:06:50Z</time>
      </trkpt>
      <trkpt lat="45.44502" lon="5.48213">
        <ele>606.72924804688</ele>
        <time>2011-04-09T16:07:06Z</time>
      </trkpt>
      <trkpt lat="45.44502" lon="5.48206">
        <ele>606.24853515625</ele>
        <time>2011-04-09T16:07:10Z</time>
      </trkpt>
      <trkpt lat="45.44504" lon="5.4819">
        <ele>604.806640625</ele>
        <time>2011-04-09T16:07:22Z</time>
      </trkpt>
      <trkpt lat="45.4451" lon="5.48168">
        <ele>603.36450195312</ele>
        <time>2011-04-09T16:07:39Z</time>
      </trkpt>
      <trkpt lat="45.44509" lon="5.4817">
        <ele>603.84521484375</ele>
        <time>2011-04-09T16:08:04Z</time>
      </trkpt>
      <trkpt lat="45.44508" lon="5.48171">
        <ele>603.36450195312</ele>
        <time>2011-04-09T16:09:15Z</time>
      </trkpt>
      <trkpt lat="45.44488" lon="5.48174">
        <ele>602.40307617188</ele>
        <time>2011-04-09T16:09:28Z</time>
      </trkpt>
      <trkpt lat="45.44484" lon="5.4818">
        <ele>601.92260742188</ele>
        <time>2011-04-09T16:09:30Z</time>
      </trkpt>
      <trkpt lat="45.44475" lon="5.48181">
        <ele>601.44189453125</ele>
        <time>2011-04-09T16:09:38Z</time>
      </trkpt>
      <trkpt lat="45.44468" lon="5.48186">
        <ele>600.96118164062</ele>
        <time>2011-04-09T16:09:44Z</time>
      </trkpt>
      <trkpt lat="45.44448" lon="5.48195">
        <ele>599.51928710938</ele>
        <time>2011-04-09T16:10:02Z</time>
      </trkpt>
      <trkpt lat="45.44434" lon="5.48202">
        <ele>598.07739257812</ele>
        <time>2011-04-09T16:10:17Z</time>
      </trkpt>
      <trkpt lat="45.44418" lon="5.48215">
        <ele>596.15478515625</ele>
        <time>2011-04-09T16:10:33Z</time>
      </trkpt>
      <trkpt lat="45.44406" lon="5.48228">
        <ele>593.75146484375</ele>
        <time>2011-04-09T16:10:49Z</time>
      </trkpt>
      <trkpt lat="45.44397" lon="5.48245">
        <ele>591.82885742188</ele>
        <time>2011-04-09T16:11:03Z</time>
      </trkpt>
      <trkpt lat="45.4439" lon="5.48269">
        <ele>588.94506835938</ele>
        <time>2011-04-09T16:11:23Z</time>
      </trkpt>
      <trkpt lat="45.44385" lon="5.48302">
        <ele>586.54150390625</ele>
        <time>2011-04-09T16:11:45Z</time>
      </trkpt>
      <trkpt lat="45.44385" lon="5.48332">
        <ele>584.13818359375</ele>
        <time>2011-04-09T16:12:06Z</time>
      </trkpt>
      <trkpt lat="45.44383" lon="5.48354">
        <ele>583.1767578125</ele>
        <time>2011-04-09T16:12:20Z</time>
      </trkpt>
      <trkpt lat="45.44383" lon="5.48361">
        <ele>582.6962890625</ele>
        <time>2011-04-09T16:12:24Z</time>
      </trkpt>
      <trkpt lat="45.4438" lon="5.48393">
        <ele>581.73486328125</ele>
        <time>2011-04-09T16:12:42Z</time>
      </trkpt>
      <trkpt lat="45.44381" lon="5.48426">
        <ele>580.29296875</ele>
        <time>2011-04-09T16:13:02Z</time>
      </trkpt>
      <trkpt lat="45.44383" lon="5.48453">
        <ele>578.85107421875</ele>
        <time>2011-04-09T16:13:19Z</time>
      </trkpt>
      <trkpt lat="45.44382" lon="5.48484">
        <ele>577.8896484375</ele>
        <time>2011-04-09T16:13:34Z</time>
      </trkpt>
      <trkpt lat="45.44381" lon="5.48497">
        <ele>577.4091796875</ele>
        <time>2011-04-09T16:13:41Z</time>
      </trkpt>
      <trkpt lat="45.44383" lon="5.48503">
        <ele>577.4091796875</ele>
        <time>2011-04-09T16:13:49Z</time>
      </trkpt>
      <trkpt lat="45.44383" lon="5.48522">
        <ele>576.44775390625</ele>
        <time>2011-04-09T16:14:00Z</time>
      </trkpt>
      <trkpt lat="45.44385" lon="5.48547">
        <ele>575.486328125</ele>
        <time>2011-04-09T16:14:15Z</time>
      </trkpt>
      <trkpt lat="45.44386" lon="5.4857">
        <ele>575.005859375</ele>
        <time>2011-04-09T16:14:28Z</time>
      </trkpt>
      <trkpt lat="45.44385" lon="5.48582">
        <ele>574.04443359375</ele>
        <time>2011-04-09T16:14:40Z</time>
      </trkpt>
      <trkpt lat="45.44387" lon="5.48592">
        <ele>574.04443359375</ele>
        <time>2011-04-09T16:14:55Z</time>
      </trkpt>
      <trkpt lat="45.44393" lon="5.48621">
        <ele>573.08325195312</ele>
        <time>2011-04-09T16:15:12Z</time>
      </trkpt>
      <trkpt lat="45.44398" lon="5.48649">
        <ele>572.6025390625</ele>
        <time>2011-04-09T16:15:30Z</time>
      </trkpt>
      <trkpt lat="45.444" lon="5.48662">
        <ele>572.12182617188</ele>
        <time>2011-04-09T16:15:37Z</time>
      </trkpt>
      <trkpt lat="45.44404" lon="5.48675">
        <ele>572.12182617188</ele>
        <time>2011-04-09T16:15:45Z</time>
      </trkpt>
      <trkpt lat="45.44405" lon="5.48694">
        <ele>571.64086914062</ele>
        <time>2011-04-09T16:15:57Z</time>
      </trkpt>
      <trkpt lat="45.44407" lon="5.4872">
        <ele>571.64086914062</ele>
        <time>2011-04-09T16:16:10Z</time>
      </trkpt>
      <trkpt lat="45.44411" lon="5.4873">
        <ele>571.16040039062</ele>
        <time>2011-04-09T16:16:20Z</time>
      </trkpt>
      <trkpt lat="45.4441" lon="5.4877">
        <ele>570.6796875</ele>
        <time>2011-04-09T16:16:37Z</time>
      </trkpt>
      <trkpt lat="45.44408" lon="5.48792">
        <ele>570.6796875</ele>
        <time>2011-04-09T16:16:47Z</time>
      </trkpt>
      <trkpt lat="45.44405" lon="5.48816">
        <ele>570.6796875</ele>
        <time>2011-04-09T16:17:00Z</time>
      </trkpt>
      <trkpt lat="45.444" lon="5.48831">
        <ele>571.16040039062</ele>
        <time>2011-04-09T16:17:16Z</time>
      </trkpt>
      <trkpt lat="45.444" lon="5.48843">
        <ele>571.16040039062</ele>
        <time>2011-04-09T16:17:36Z</time>
      </trkpt>
      <trkpt lat="45.44399" lon="5.48855">
        <ele>571.16040039062</ele>
        <time>2011-04-09T16:17:45Z</time>
      </trkpt>
      <trkpt lat="45.444" lon="5.48863">
        <ele>571.64086914062</ele>
        <time>2011-04-09T16:17:50Z</time>
      </trkpt>
      <trkpt lat="45.44401" lon="5.48882">
        <ele>572.12182617188</ele>
        <time>2011-04-09T16:18:04Z</time>
      </trkpt>
      <trkpt lat="45.444" lon="5.48887">
        <ele>571.64086914062</ele>
        <time>2011-04-09T16:18:19Z</time>
      </trkpt>
      <trkpt lat="45.44401" lon="5.48889">
        <ele>572.12182617188</ele>
        <time>2011-04-09T16:18:29Z</time>
      </trkpt>
      <trkpt lat="45.44403" lon="5.489">
        <ele>572.12182617188</ele>
        <time>2011-04-09T16:18:42Z</time>
      </trkpt>
      <trkpt lat="45.44403" lon="5.48906">
        <ele>572.12182617188</ele>
        <time>2011-04-09T16:18:45Z</time>
      </trkpt>
      <trkpt lat="45.44407" lon="5.48918">
        <ele>572.12182617188</ele>
        <time>2011-04-09T16:18:57Z</time>
      </trkpt>
      <trkpt lat="45.44407" lon="5.48921">
        <ele>571.64086914062</ele>
        <time>2011-04-09T16:19:12Z</time>
      </trkpt>
      <trkpt lat="45.44408" lon="5.4892">
        <ele>571.64086914062</ele>
        <time>2011-04-09T16:19:41Z</time>
      </trkpt>
      <trkpt lat="45.44406" lon="5.48918">
        <ele>571.16040039062</ele>
        <time>2011-04-09T16:19:54Z</time>
      </trkpt>
      <trkpt lat="45.44406" lon="5.48918">
        <ele>571.64086914062</ele>
        <time>2011-04-09T16:20:03Z</time>
      </trkpt>
    </trkseg>
  </trk>
</gpx>